﻿<?xml version="1.0" encoding="UTF-8" standalone="no" ?>
<gpx xmlns="http://www.topografix.com/GPX/1/1" creator="CompeGPS" version="1.1" xmlns:xsi="http://www.w3.org/2001/XMLSchema-instance" xsi:schemaLocation="http://www.topografix.com/GPX/1/1 http://www.topografix.com/GPX/1/1/gpx.xsd http://www.garmin.com/xmlschemas/GpxExtensions/v3 http://www.garmin.com/xmlschemas/GpxExtensionsv3.xsd http://www.garmin.com/xmlschemas/TrackPointExtension/v1 http://www.garmin.com/xmlschemas/TrackPointExtensionv1.xsd" xmlns:gpxtpx="http://www.garmin.com/xmlschemas/TrackPointExtension/v1">
  <metadata>
    <link href="http://www.compegps.com">
      <text>CompeGPS TEAM, SL</text>
    </link>
    <time>2019-03-17T15:04:21Z</time>
    <bounds maxlat="42.819165" maxlon="1.794537" minlat="42.789074" minlon="1.765634"/>
  </metadata>
  <trk>
    <name>st-barth_soularac</name>
    <userMyTwoNav></userMyTwoNav>
    <serialNumber></serialNumber>
    <trkseg>
      <trkpt lat="42.790256" lon="1.794537">
        <ele>1444.8</ele>
      </trkpt>
      <trkpt lat="42.790324" lon="1.794368">
        <ele>1449.1</ele>
      </trkpt>
      <trkpt lat="42.790447" lon="1.794172">
        <ele>1454.9</ele>
      </trkpt>
      <trkpt lat="42.790593" lon="1.793929">
        <ele>1460.9</ele>
      </trkpt>
      <trkpt lat="42.790837" lon="1.793718">
        <ele>1469.9</ele>
      </trkpt>
      <trkpt lat="42.791115" lon="1.793370">
        <ele>1479.9</ele>
      </trkpt>
      <trkpt lat="42.791326" lon="1.792916">
        <ele>1489.5</ele>
      </trkpt>
      <trkpt lat="42.791503" lon="1.792674">
        <ele>1496.3</ele>
      </trkpt>
      <trkpt lat="42.791792" lon="1.792553">
        <ele>1506.7</ele>
      </trkpt>
      <trkpt lat="42.792025" lon="1.792341">
        <ele>1517.3</ele>
      </trkpt>
      <trkpt lat="42.792214" lon="1.792144">
        <ele>1525.2</ele>
      </trkpt>
      <trkpt lat="42.792492" lon="1.792099">
        <ele>1535.8</ele>
      </trkpt>
      <trkpt lat="42.792791" lon="1.791947">
        <ele>1547.4</ele>
      </trkpt>
      <trkpt lat="42.793136" lon="1.791736">
        <ele>1560.6</ele>
      </trkpt>
      <trkpt lat="42.793280" lon="1.791236">
        <ele>1563.7</ele>
      </trkpt>
      <trkpt lat="42.793513" lon="1.790737">
        <ele>1569.6</ele>
      </trkpt>
      <trkpt lat="42.793768" lon="1.790117">
        <ele>1581.8</ele>
      </trkpt>
      <trkpt lat="42.794063" lon="1.788870">
        <ele>1596.9</ele>
      </trkpt>
      <trkpt lat="42.794087" lon="1.788461">
        <ele>1596.2</ele>
      </trkpt>
      <trkpt lat="42.794146" lon="1.788229">
        <ele>1598.2</ele>
      </trkpt>
      <trkpt lat="42.794113" lon="1.787904">
        <ele>1597.1</ele>
      </trkpt>
      <trkpt lat="42.794048" lon="1.787697">
        <ele>1595.1</ele>
      </trkpt>
      <trkpt lat="42.794019" lon="1.787623">
        <ele>1552.2</ele>
        <time>2019-02-17T08:35:52Z</time>
      </trkpt>
      <trkpt lat="42.794016" lon="1.787565">
        <ele>1563.8</ele>
        <time>2019-02-17T08:40:49Z</time>
      </trkpt>
      <trkpt lat="42.794090" lon="1.787555">
        <ele>1567.0</ele>
        <time>2019-02-17T08:41:19Z</time>
      </trkpt>
      <trkpt lat="42.794183" lon="1.787582">
        <ele>1568.6</ele>
        <time>2019-02-17T08:41:44Z</time>
      </trkpt>
      <trkpt lat="42.794286" lon="1.787590">
        <ele>1570.4</ele>
        <time>2019-02-17T08:42:12Z</time>
      </trkpt>
      <trkpt lat="42.794380" lon="1.787579">
        <ele>1572.7</ele>
        <time>2019-02-17T08:42:31Z</time>
      </trkpt>
      <trkpt lat="42.794475" lon="1.787634">
        <ele>1573.8</ele>
        <time>2019-02-17T08:42:48Z</time>
      </trkpt>
      <trkpt lat="42.794540" lon="1.787728">
        <ele>1575.0</ele>
        <time>2019-02-17T08:43:03Z</time>
      </trkpt>
      <trkpt lat="42.794590" lon="1.787833">
        <ele>1577.5</ele>
        <time>2019-02-17T08:43:22Z</time>
      </trkpt>
      <trkpt lat="42.794670" lon="1.787924">
        <ele>1581.2</ele>
        <time>2019-02-17T08:43:44Z</time>
      </trkpt>
      <trkpt lat="42.794749" lon="1.788000">
        <ele>1584.8</ele>
        <time>2019-02-17T08:44:04Z</time>
      </trkpt>
      <trkpt lat="42.794815" lon="1.788093">
        <ele>1588.1</ele>
        <time>2019-02-17T08:44:25Z</time>
      </trkpt>
      <trkpt lat="42.794876" lon="1.788181">
        <ele>1591.7</ele>
        <time>2019-02-17T08:44:47Z</time>
      </trkpt>
      <trkpt lat="42.794961" lon="1.788185">
        <ele>1594.3</ele>
        <time>2019-02-17T08:45:13Z</time>
      </trkpt>
      <trkpt lat="42.795036" lon="1.788228">
        <ele>1596.8</ele>
        <time>2019-02-17T08:45:32Z</time>
      </trkpt>
      <trkpt lat="42.795113" lon="1.788218">
        <ele>1601.9</ele>
        <time>2019-02-17T08:46:00Z</time>
      </trkpt>
      <trkpt lat="42.795211" lon="1.788214">
        <ele>1605.1</ele>
        <time>2019-02-17T08:46:23Z</time>
      </trkpt>
      <trkpt lat="42.795313" lon="1.788217">
        <ele>1610.0</ele>
        <time>2019-02-17T08:46:51Z</time>
      </trkpt>
      <trkpt lat="42.795397" lon="1.788176">
        <ele>1612.1</ele>
        <time>2019-02-17T08:47:11Z</time>
      </trkpt>
      <trkpt lat="42.795472" lon="1.788176">
        <ele>1615.0</ele>
        <time>2019-02-17T08:47:33Z</time>
      </trkpt>
      <trkpt lat="42.795561" lon="1.788221">
        <ele>1618.7</ele>
        <time>2019-02-17T08:47:54Z</time>
      </trkpt>
      <trkpt lat="42.795653" lon="1.788240">
        <ele>1622.4</ele>
        <time>2019-02-17T08:48:21Z</time>
      </trkpt>
      <trkpt lat="42.795745" lon="1.788241">
        <ele>1625.7</ele>
        <time>2019-02-17T08:48:43Z</time>
      </trkpt>
      <trkpt lat="42.795841" lon="1.788244">
        <ele>1628.9</ele>
        <time>2019-02-17T08:49:03Z</time>
      </trkpt>
      <trkpt lat="42.795929" lon="1.788214">
        <ele>1630.8</ele>
        <time>2019-02-17T08:49:17Z</time>
      </trkpt>
      <trkpt lat="42.796012" lon="1.788193">
        <ele>1632.6</ele>
        <time>2019-02-17T08:49:34Z</time>
      </trkpt>
      <trkpt lat="42.796089" lon="1.788241">
        <ele>1636.5</ele>
        <time>2019-02-17T08:49:59Z</time>
      </trkpt>
      <trkpt lat="42.796177" lon="1.788200">
        <ele>1639.6</ele>
        <time>2019-02-17T08:50:18Z</time>
      </trkpt>
      <trkpt lat="42.796269" lon="1.788125">
        <ele>1641.6</ele>
        <time>2019-02-17T08:50:36Z</time>
      </trkpt>
      <trkpt lat="42.796363" lon="1.788089">
        <ele>1644.3</ele>
        <time>2019-02-17T08:50:53Z</time>
      </trkpt>
      <trkpt lat="42.796467" lon="1.788071">
        <ele>1647.9</ele>
        <time>2019-02-17T08:51:15Z</time>
      </trkpt>
      <trkpt lat="42.796552" lon="1.788078">
        <ele>1651.7</ele>
        <time>2019-02-17T08:51:39Z</time>
      </trkpt>
      <trkpt lat="42.796638" lon="1.788098">
        <ele>1655.7</ele>
        <time>2019-02-17T08:52:00Z</time>
      </trkpt>
      <trkpt lat="42.796726" lon="1.788121">
        <ele>1658.4</ele>
        <time>2019-02-17T08:52:20Z</time>
      </trkpt>
      <trkpt lat="42.796821" lon="1.788144">
        <ele>1661.3</ele>
        <time>2019-02-17T08:52:37Z</time>
      </trkpt>
      <trkpt lat="42.796915" lon="1.788159">
        <ele>1665.9</ele>
        <time>2019-02-17T08:53:01Z</time>
      </trkpt>
      <trkpt lat="42.797015" lon="1.788172">
        <ele>1669.6</ele>
        <time>2019-02-17T08:53:24Z</time>
      </trkpt>
      <trkpt lat="42.797113" lon="1.788168">
        <ele>1673.9</ele>
        <time>2019-02-17T08:53:50Z</time>
      </trkpt>
      <trkpt lat="42.797206" lon="1.788167">
        <ele>1677.9</ele>
        <time>2019-02-17T08:54:14Z</time>
      </trkpt>
      <trkpt lat="42.797304" lon="1.788198">
        <ele>1682.6</ele>
        <time>2019-02-17T08:54:42Z</time>
      </trkpt>
      <trkpt lat="42.797399" lon="1.788171">
        <ele>1685.7</ele>
        <time>2019-02-17T08:55:02Z</time>
      </trkpt>
      <trkpt lat="42.797464" lon="1.788229">
        <ele>1689.1</ele>
        <time>2019-02-17T08:55:30Z</time>
      </trkpt>
      <trkpt lat="42.797519" lon="1.788306">
        <ele>1692.0</ele>
        <time>2019-02-17T08:55:50Z</time>
      </trkpt>
      <trkpt lat="42.797610" lon="1.788348">
        <ele>1695.2</ele>
        <time>2019-02-17T08:56:14Z</time>
      </trkpt>
      <trkpt lat="42.797702" lon="1.788324">
        <ele>1697.4</ele>
        <time>2019-02-17T08:56:31Z</time>
      </trkpt>
      <trkpt lat="42.797780" lon="1.788348">
        <ele>1699.0</ele>
        <time>2019-02-17T08:56:47Z</time>
      </trkpt>
      <trkpt lat="42.797817" lon="1.788382">
        <ele>1700.4</ele>
        <time>2019-02-17T08:58:03Z</time>
      </trkpt>
      <trkpt lat="42.797898" lon="1.788386">
        <ele>1701.6</ele>
        <time>2019-02-17T09:01:30Z</time>
      </trkpt>
      <trkpt lat="42.797993" lon="1.788343">
        <ele>1702.6</ele>
        <time>2019-02-17T09:01:44Z</time>
      </trkpt>
      <trkpt lat="42.798093" lon="1.788300">
        <ele>1705.4</ele>
        <time>2019-02-17T09:02:03Z</time>
      </trkpt>
      <trkpt lat="42.798178" lon="1.788245">
        <ele>1708.2</ele>
        <time>2019-02-17T09:02:23Z</time>
      </trkpt>
      <trkpt lat="42.798260" lon="1.788187">
        <ele>1712.0</ele>
        <time>2019-02-17T09:02:47Z</time>
      </trkpt>
      <trkpt lat="42.798352" lon="1.788185">
        <ele>1715.6</ele>
        <time>2019-02-17T09:03:06Z</time>
      </trkpt>
      <trkpt lat="42.798435" lon="1.788126">
        <ele>1718.3</ele>
        <time>2019-02-17T09:03:25Z</time>
      </trkpt>
      <trkpt lat="42.798517" lon="1.788077">
        <ele>1720.5</ele>
        <time>2019-02-17T09:03:41Z</time>
      </trkpt>
      <trkpt lat="42.798576" lon="1.787991">
        <ele>1722.8</ele>
        <time>2019-02-17T09:03:57Z</time>
      </trkpt>
      <trkpt lat="42.798656" lon="1.788024">
        <ele>1726.1</ele>
        <time>2019-02-17T09:04:18Z</time>
      </trkpt>
      <trkpt lat="42.798751" lon="1.787985">
        <ele>1727.7</ele>
        <time>2019-02-17T09:04:31Z</time>
      </trkpt>
      <trkpt lat="42.798835" lon="1.787959">
        <ele>1729.6</ele>
        <time>2019-02-17T09:04:46Z</time>
      </trkpt>
      <trkpt lat="42.798917" lon="1.787955">
        <ele>1732.5</ele>
        <time>2019-02-17T09:05:04Z</time>
      </trkpt>
      <trkpt lat="42.799000" lon="1.787877">
        <ele>1734.8</ele>
        <time>2019-02-17T09:05:21Z</time>
      </trkpt>
      <trkpt lat="42.799084" lon="1.787850">
        <ele>1737.5</ele>
        <time>2019-02-17T09:05:37Z</time>
      </trkpt>
      <trkpt lat="42.799162" lon="1.787818">
        <ele>1740.5</ele>
        <time>2019-02-17T09:05:57Z</time>
      </trkpt>
      <trkpt lat="42.799253" lon="1.787863">
        <ele>1745.1</ele>
        <time>2019-02-17T09:06:27Z</time>
      </trkpt>
      <trkpt lat="42.799335" lon="1.787852">
        <ele>1748.7</ele>
        <time>2019-02-17T09:06:54Z</time>
      </trkpt>
      <trkpt lat="42.799417" lon="1.787766">
        <ele>1752.1</ele>
        <time>2019-02-17T09:07:17Z</time>
      </trkpt>
      <trkpt lat="42.799500" lon="1.787757">
        <ele>1754.7</ele>
        <time>2019-02-17T09:07:37Z</time>
      </trkpt>
      <trkpt lat="42.799594" lon="1.787746">
        <ele>1758.2</ele>
        <time>2019-02-17T09:07:58Z</time>
      </trkpt>
      <trkpt lat="42.799659" lon="1.787666">
        <ele>1761.8</ele>
        <time>2019-02-17T09:08:21Z</time>
      </trkpt>
      <trkpt lat="42.799734" lon="1.787695">
        <ele>1764.4</ele>
        <time>2019-02-17T09:08:38Z</time>
      </trkpt>
      <trkpt lat="42.799824" lon="1.787703">
        <ele>1767.4</ele>
        <time>2019-02-17T09:09:01Z</time>
      </trkpt>
      <trkpt lat="42.799897" lon="1.787670">
        <ele>1771.2</ele>
        <time>2019-02-17T09:09:30Z</time>
      </trkpt>
      <trkpt lat="42.799974" lon="1.787659">
        <ele>1775.9</ele>
        <time>2019-02-17T09:10:01Z</time>
      </trkpt>
      <trkpt lat="42.800070" lon="1.787668">
        <ele>1778.4</ele>
        <time>2019-02-17T09:10:21Z</time>
      </trkpt>
      <trkpt lat="42.800146" lon="1.787696">
        <ele>1783.2</ele>
        <time>2019-02-17T09:10:51Z</time>
      </trkpt>
      <trkpt lat="42.800227" lon="1.787706">
        <ele>1786.4</ele>
        <time>2019-02-17T09:11:17Z</time>
      </trkpt>
      <trkpt lat="42.800312" lon="1.787735">
        <ele>1790.3</ele>
        <time>2019-02-17T09:11:41Z</time>
      </trkpt>
      <trkpt lat="42.800401" lon="1.787748">
        <ele>1794.2</ele>
        <time>2019-02-17T09:12:07Z</time>
      </trkpt>
      <trkpt lat="42.800475" lon="1.787814">
        <ele>1796.9</ele>
        <time>2019-02-17T09:12:26Z</time>
      </trkpt>
      <trkpt lat="42.800564" lon="1.787851">
        <ele>1800.3</ele>
        <time>2019-02-17T09:12:48Z</time>
      </trkpt>
      <trkpt lat="42.800654" lon="1.787817">
        <ele>1804.8</ele>
        <time>2019-02-17T09:13:12Z</time>
      </trkpt>
      <trkpt lat="42.800755" lon="1.787821">
        <ele>1808.3</ele>
        <time>2019-02-17T09:13:33Z</time>
      </trkpt>
      <trkpt lat="42.800827" lon="1.787875">
        <ele>1811.2</ele>
        <time>2019-02-17T09:13:57Z</time>
      </trkpt>
      <trkpt lat="42.800843" lon="1.787877">
        <ele>1813.6</ele>
        <time>2019-02-17T09:19:38Z</time>
      </trkpt>
      <trkpt lat="42.800930" lon="1.787858">
        <ele>1816.2</ele>
        <time>2019-02-17T09:20:00Z</time>
      </trkpt>
      <trkpt lat="42.801017" lon="1.787825">
        <ele>1817.7</ele>
        <time>2019-02-17T09:20:17Z</time>
      </trkpt>
      <trkpt lat="42.801110" lon="1.787840">
        <ele>1820.0</ele>
        <time>2019-02-17T09:20:32Z</time>
      </trkpt>
      <trkpt lat="42.801204" lon="1.787850">
        <ele>1823.0</ele>
        <time>2019-02-17T09:20:49Z</time>
      </trkpt>
      <trkpt lat="42.801308" lon="1.787855">
        <ele>1826.8</ele>
        <time>2019-02-17T09:21:12Z</time>
      </trkpt>
      <trkpt lat="42.801405" lon="1.787859">
        <ele>1831.4</ele>
        <time>2019-02-17T09:21:40Z</time>
      </trkpt>
      <trkpt lat="42.801499" lon="1.787871">
        <ele>1836.2</ele>
        <time>2019-02-17T09:22:07Z</time>
      </trkpt>
      <trkpt lat="42.801586" lon="1.787860">
        <ele>1840.3</ele>
        <time>2019-02-17T09:22:28Z</time>
      </trkpt>
      <trkpt lat="42.801665" lon="1.787851">
        <ele>1844.4</ele>
        <time>2019-02-17T09:22:51Z</time>
      </trkpt>
      <trkpt lat="42.801758" lon="1.787850">
        <ele>1848.8</ele>
        <time>2019-02-17T09:23:16Z</time>
      </trkpt>
      <trkpt lat="42.801847" lon="1.787873">
        <ele>1852.4</ele>
        <time>2019-02-17T09:23:39Z</time>
      </trkpt>
      <trkpt lat="42.801942" lon="1.787880">
        <ele>1857.2</ele>
        <time>2019-02-17T09:24:08Z</time>
      </trkpt>
      <trkpt lat="42.802028" lon="1.787926">
        <ele>1859.2</ele>
        <time>2019-02-17T09:24:25Z</time>
      </trkpt>
      <trkpt lat="42.802130" lon="1.787815">
        <ele>1863.1</ele>
        <time>2019-02-17T09:27:53Z</time>
      </trkpt>
      <trkpt lat="42.802158" lon="1.787694">
        <ele>1865.0</ele>
        <time>2019-02-17T09:28:07Z</time>
      </trkpt>
      <trkpt lat="42.802170" lon="1.787562">
        <ele>1867.4</ele>
        <time>2019-02-17T09:28:23Z</time>
      </trkpt>
      <trkpt lat="42.802225" lon="1.787466">
        <ele>1871.4</ele>
        <time>2019-02-17T09:28:47Z</time>
      </trkpt>
      <trkpt lat="42.802288" lon="1.787361">
        <ele>1873.0</ele>
        <time>2019-02-17T09:29:02Z</time>
      </trkpt>
      <trkpt lat="42.802339" lon="1.787266">
        <ele>1874.1</ele>
        <time>2019-02-17T09:29:16Z</time>
      </trkpt>
      <trkpt lat="42.802392" lon="1.787200">
        <ele>1877.7</ele>
        <time>2019-02-17T09:29:36Z</time>
      </trkpt>
      <trkpt lat="42.802407" lon="1.787064">
        <ele>1879.0</ele>
        <time>2019-02-17T09:29:48Z</time>
      </trkpt>
      <trkpt lat="42.802490" lon="1.787021">
        <ele>1878.7</ele>
        <time>2019-02-17T09:30:00Z</time>
      </trkpt>
      <trkpt lat="42.802573" lon="1.786956">
        <ele>1880.3</ele>
        <time>2019-02-17T09:30:12Z</time>
      </trkpt>
      <trkpt lat="42.802621" lon="1.786852">
        <ele>1881.0</ele>
        <time>2019-02-17T09:30:25Z</time>
      </trkpt>
      <trkpt lat="42.802671" lon="1.786755">
        <ele>1884.0</ele>
        <time>2019-02-17T09:30:41Z</time>
      </trkpt>
      <trkpt lat="42.802724" lon="1.786683">
        <ele>1887.7</ele>
        <time>2019-02-17T09:31:02Z</time>
      </trkpt>
      <trkpt lat="42.802767" lon="1.786572">
        <ele>1889.1</ele>
        <time>2019-02-17T09:31:19Z</time>
      </trkpt>
      <trkpt lat="42.802832" lon="1.786480">
        <ele>1891.4</ele>
        <time>2019-02-17T09:31:37Z</time>
      </trkpt>
      <trkpt lat="42.802884" lon="1.786349">
        <ele>1892.0</ele>
        <time>2019-02-17T09:31:49Z</time>
      </trkpt>
      <trkpt lat="42.802892" lon="1.786212">
        <ele>1891.3</ele>
        <time>2019-02-17T09:32:00Z</time>
      </trkpt>
      <trkpt lat="42.802911" lon="1.786083">
        <ele>1889.9</ele>
        <time>2019-02-17T09:32:12Z</time>
      </trkpt>
      <trkpt lat="42.802970" lon="1.785990">
        <ele>1888.0</ele>
        <time>2019-02-17T09:32:24Z</time>
      </trkpt>
      <trkpt lat="42.803032" lon="1.785896">
        <ele>1888.7</ele>
        <time>2019-02-17T09:32:39Z</time>
      </trkpt>
      <trkpt lat="42.803082" lon="1.785781">
        <ele>1889.5</ele>
        <time>2019-02-17T09:32:51Z</time>
      </trkpt>
      <trkpt lat="42.803138" lon="1.785673">
        <ele>1890.7</ele>
        <time>2019-02-17T09:33:04Z</time>
      </trkpt>
      <trkpt lat="42.803215" lon="1.785602">
        <ele>1893.4</ele>
        <time>2019-02-17T09:33:18Z</time>
      </trkpt>
      <trkpt lat="42.803293" lon="1.785537">
        <ele>1895.2</ele>
        <time>2019-02-17T09:33:34Z</time>
      </trkpt>
      <trkpt lat="42.803366" lon="1.785461">
        <ele>1897.7</ele>
        <time>2019-02-17T09:33:50Z</time>
      </trkpt>
      <trkpt lat="42.803439" lon="1.785370">
        <ele>1899.9</ele>
        <time>2019-02-17T09:34:06Z</time>
      </trkpt>
      <trkpt lat="42.803518" lon="1.785315">
        <ele>1902.7</ele>
        <time>2019-02-17T09:34:22Z</time>
      </trkpt>
      <trkpt lat="42.803599" lon="1.785258">
        <ele>1904.6</ele>
        <time>2019-02-17T09:34:41Z</time>
      </trkpt>
      <trkpt lat="42.803693" lon="1.785246">
        <ele>1908.1</ele>
        <time>2019-02-17T09:34:56Z</time>
      </trkpt>
      <trkpt lat="42.803776" lon="1.785241">
        <ele>1911.0</ele>
        <time>2019-02-17T09:35:10Z</time>
      </trkpt>
      <trkpt lat="42.803860" lon="1.785240">
        <ele>1915.0</ele>
        <time>2019-02-17T09:35:27Z</time>
      </trkpt>
      <trkpt lat="42.803949" lon="1.785225">
        <ele>1918.2</ele>
        <time>2019-02-17T09:35:43Z</time>
      </trkpt>
      <trkpt lat="42.804034" lon="1.785169">
        <ele>1921.4</ele>
        <time>2019-02-17T09:36:03Z</time>
      </trkpt>
      <trkpt lat="42.804136" lon="1.785158">
        <ele>1925.2</ele>
        <time>2019-02-17T09:36:25Z</time>
      </trkpt>
      <trkpt lat="42.804231" lon="1.785144">
        <ele>1928.1</ele>
        <time>2019-02-17T09:36:46Z</time>
      </trkpt>
      <trkpt lat="42.804310" lon="1.785102">
        <ele>1931.7</ele>
        <time>2019-02-17T09:37:08Z</time>
      </trkpt>
      <trkpt lat="42.804402" lon="1.785080">
        <ele>1934.2</ele>
        <time>2019-02-17T09:37:29Z</time>
      </trkpt>
      <trkpt lat="42.804474" lon="1.785037">
        <ele>1936.1</ele>
        <time>2019-02-17T09:37:46Z</time>
      </trkpt>
      <trkpt lat="42.804577" lon="1.785047">
        <ele>1939.5</ele>
        <time>2019-02-17T09:38:03Z</time>
      </trkpt>
      <trkpt lat="42.804661" lon="1.785013">
        <ele>1940.5</ele>
        <time>2019-02-17T09:38:18Z</time>
      </trkpt>
      <trkpt lat="42.804745" lon="1.785017">
        <ele>1942.8</ele>
        <time>2019-02-17T09:38:34Z</time>
      </trkpt>
      <trkpt lat="42.804831" lon="1.785011">
        <ele>1944.7</ele>
        <time>2019-02-17T09:38:49Z</time>
      </trkpt>
      <trkpt lat="42.804915" lon="1.785010">
        <ele>1948.1</ele>
        <time>2019-02-17T09:39:08Z</time>
      </trkpt>
      <trkpt lat="42.804984" lon="1.784989">
        <ele>1950.6</ele>
        <time>2019-02-17T09:39:29Z</time>
      </trkpt>
      <trkpt lat="42.805062" lon="1.785024">
        <ele>1953.7</ele>
        <time>2019-02-17T09:39:53Z</time>
      </trkpt>
      <trkpt lat="42.805128" lon="1.784961">
        <ele>1956.4</ele>
        <time>2019-02-17T09:40:16Z</time>
      </trkpt>
      <trkpt lat="42.805222" lon="1.784995">
        <ele>1960.8</ele>
        <time>2019-02-17T09:40:41Z</time>
      </trkpt>
      <trkpt lat="42.805297" lon="1.784958">
        <ele>1963.7</ele>
        <time>2019-02-17T09:41:09Z</time>
      </trkpt>
      <trkpt lat="42.805376" lon="1.784879">
        <ele>1967.4</ele>
        <time>2019-02-17T09:41:29Z</time>
      </trkpt>
      <trkpt lat="42.805472" lon="1.784873">
        <ele>1971.5</ele>
        <time>2019-02-17T09:41:50Z</time>
      </trkpt>
      <trkpt lat="42.805666" lon="1.784833">
        <ele>1979.8</ele>
        <time>2019-02-17T09:42:50Z</time>
      </trkpt>
      <trkpt lat="42.805719" lon="1.784724">
        <ele>1982.9</ele>
        <time>2019-02-17T09:43:13Z</time>
      </trkpt>
      <trkpt lat="42.805788" lon="1.784658">
        <ele>1986.4</ele>
        <time>2019-02-17T09:43:38Z</time>
      </trkpt>
      <trkpt lat="42.805871" lon="1.784616">
        <ele>1989.7</ele>
        <time>2019-02-17T09:44:01Z</time>
      </trkpt>
      <trkpt lat="42.805905" lon="1.784505">
        <ele>1992.7</ele>
        <time>2019-02-17T09:44:25Z</time>
      </trkpt>
      <trkpt lat="42.805997" lon="1.784484">
        <ele>1996.7</ele>
        <time>2019-02-17T09:44:51Z</time>
      </trkpt>
      <trkpt lat="42.806075" lon="1.784492">
        <ele>2000.0</ele>
        <time>2019-02-17T09:45:18Z</time>
      </trkpt>
      <trkpt lat="42.806149" lon="1.784412">
        <ele>2003.3</ele>
        <time>2019-02-17T09:45:46Z</time>
      </trkpt>
      <trkpt lat="42.806215" lon="1.784394">
        <ele>2006.8</ele>
        <time>2019-02-17T09:46:12Z</time>
      </trkpt>
      <trkpt lat="42.806285" lon="1.784343">
        <ele>2009.8</ele>
        <time>2019-02-17T09:46:36Z</time>
      </trkpt>
      <trkpt lat="42.806367" lon="1.784282">
        <ele>2012.4</ele>
        <time>2019-02-17T09:46:58Z</time>
      </trkpt>
      <trkpt lat="42.806464" lon="1.784298">
        <ele>2015.8</ele>
        <time>2019-02-17T09:47:18Z</time>
      </trkpt>
      <trkpt lat="42.806550" lon="1.784351">
        <ele>2018.7</ele>
        <time>2019-02-17T09:47:37Z</time>
      </trkpt>
      <trkpt lat="42.806642" lon="1.784387">
        <ele>2021.4</ele>
        <time>2019-02-17T09:47:56Z</time>
      </trkpt>
      <trkpt lat="42.806727" lon="1.784414">
        <ele>2024.1</ele>
        <time>2019-02-17T09:48:14Z</time>
      </trkpt>
      <trkpt lat="42.806815" lon="1.784455">
        <ele>2026.6</ele>
        <time>2019-02-17T09:48:31Z</time>
      </trkpt>
      <trkpt lat="42.806906" lon="1.784491">
        <ele>2028.4</ele>
        <time>2019-02-17T09:48:49Z</time>
      </trkpt>
      <trkpt lat="42.806993" lon="1.784541">
        <ele>2032.2</ele>
        <time>2019-02-17T09:49:08Z</time>
      </trkpt>
      <trkpt lat="42.806970" lon="1.784542">
        <ele>2033.1</ele>
        <time>2019-02-17T09:56:12Z</time>
      </trkpt>
      <trkpt lat="42.807009" lon="1.784554">
        <ele>2033.7</ele>
        <time>2019-02-17T09:59:37Z</time>
      </trkpt>
      <trkpt lat="42.807095" lon="1.784605">
        <ele>2035.3</ele>
        <time>2019-02-17T09:59:51Z</time>
      </trkpt>
      <trkpt lat="42.807188" lon="1.784653">
        <ele>2039.8</ele>
        <time>2019-02-17T10:00:12Z</time>
      </trkpt>
      <trkpt lat="42.807266" lon="1.784647">
        <ele>2043.2</ele>
        <time>2019-02-17T10:00:38Z</time>
      </trkpt>
      <trkpt lat="42.807356" lon="1.784643">
        <ele>2046.9</ele>
        <time>2019-02-17T10:00:58Z</time>
      </trkpt>
      <trkpt lat="42.807432" lon="1.784673">
        <ele>2050.4</ele>
        <time>2019-02-17T10:01:24Z</time>
      </trkpt>
      <trkpt lat="42.807501" lon="1.784685">
        <ele>2052.5</ele>
        <time>2019-02-17T10:01:49Z</time>
      </trkpt>
      <trkpt lat="42.807582" lon="1.784743">
        <ele>2053.5</ele>
        <time>2019-02-17T10:02:05Z</time>
      </trkpt>
      <trkpt lat="42.807617" lon="1.784838">
        <ele>2055.7</ele>
        <time>2019-02-17T10:02:32Z</time>
      </trkpt>
      <trkpt lat="42.807689" lon="1.784848">
        <ele>2058.4</ele>
        <time>2019-02-17T10:03:40Z</time>
      </trkpt>
      <trkpt lat="42.807701" lon="1.784874">
        <ele>2061.5</ele>
        <time>2019-02-17T10:04:39Z</time>
      </trkpt>
      <trkpt lat="42.807682" lon="1.784842">
        <ele>2060.2</ele>
        <time>2019-02-17T10:06:40Z</time>
      </trkpt>
      <trkpt lat="42.807745" lon="1.784909">
        <ele>2063.0</ele>
        <time>2019-02-17T10:07:23Z</time>
      </trkpt>
      <trkpt lat="42.807812" lon="1.784969">
        <ele>2066.8</ele>
        <time>2019-02-17T10:08:48Z</time>
      </trkpt>
      <trkpt lat="42.807892" lon="1.784981">
        <ele>2070.3</ele>
        <time>2019-02-17T10:09:19Z</time>
      </trkpt>
      <trkpt lat="42.807984" lon="1.785005">
        <ele>2075.9</ele>
        <time>2019-02-17T10:10:00Z</time>
      </trkpt>
      <trkpt lat="42.808066" lon="1.785081">
        <ele>2078.6</ele>
        <time>2019-02-17T10:10:20Z</time>
      </trkpt>
      <trkpt lat="42.808102" lon="1.785184">
        <ele>2080.8</ele>
        <time>2019-02-17T10:11:49Z</time>
      </trkpt>
      <trkpt lat="42.808166" lon="1.785292">
        <ele>2078.7</ele>
        <time>2019-02-17T10:12:02Z</time>
      </trkpt>
      <trkpt lat="42.808237" lon="1.785378">
        <ele>2076.2</ele>
        <time>2019-02-17T10:12:21Z</time>
      </trkpt>
      <trkpt lat="42.808299" lon="1.785477">
        <ele>2076.0</ele>
        <time>2019-02-17T10:12:55Z</time>
      </trkpt>
      <trkpt lat="42.808373" lon="1.785558">
        <ele>2076.5</ele>
        <time>2019-02-17T10:13:04Z</time>
      </trkpt>
      <trkpt lat="42.808460" lon="1.785634">
        <ele>2076.4</ele>
        <time>2019-02-17T10:13:13Z</time>
      </trkpt>
      <trkpt lat="42.808534" lon="1.785696">
        <ele>2076.5</ele>
        <time>2019-02-17T10:13:27Z</time>
      </trkpt>
      <trkpt lat="42.808619" lon="1.785752">
        <ele>2077.7</ele>
        <time>2019-02-17T10:13:40Z</time>
      </trkpt>
      <trkpt lat="42.808709" lon="1.785797">
        <ele>2080.4</ele>
        <time>2019-02-17T10:13:57Z</time>
      </trkpt>
      <trkpt lat="42.808803" lon="1.785794">
        <ele>2080.2</ele>
        <time>2019-02-17T10:14:08Z</time>
      </trkpt>
      <trkpt lat="42.808892" lon="1.785783">
        <ele>2081.5</ele>
        <time>2019-02-17T10:14:38Z</time>
      </trkpt>
      <trkpt lat="42.808986" lon="1.785766">
        <ele>2083.3</ele>
        <time>2019-02-17T10:14:50Z</time>
      </trkpt>
      <trkpt lat="42.809072" lon="1.785784">
        <ele>2085.1</ele>
        <time>2019-02-17T10:15:02Z</time>
      </trkpt>
      <trkpt lat="42.809163" lon="1.785817">
        <ele>2087.8</ele>
        <time>2019-02-17T10:15:20Z</time>
      </trkpt>
      <trkpt lat="42.809235" lon="1.785863">
        <ele>2090.6</ele>
        <time>2019-02-17T10:15:37Z</time>
      </trkpt>
      <trkpt lat="42.809326" lon="1.785857">
        <ele>2089.7</ele>
        <time>2019-02-17T10:15:49Z</time>
      </trkpt>
      <trkpt lat="42.809406" lon="1.785825">
        <ele>2087.1</ele>
        <time>2019-02-17T10:16:40Z</time>
      </trkpt>
      <trkpt lat="42.809507" lon="1.785807">
        <ele>2084.4</ele>
        <time>2019-02-17T10:16:50Z</time>
      </trkpt>
      <trkpt lat="42.809606" lon="1.785827">
        <ele>2083.0</ele>
        <time>2019-02-17T10:17:00Z</time>
      </trkpt>
      <trkpt lat="42.809697" lon="1.785820">
        <ele>2082.3</ele>
        <time>2019-02-17T10:17:09Z</time>
      </trkpt>
      <trkpt lat="42.809785" lon="1.785801">
        <ele>2081.4</ele>
        <time>2019-02-17T10:17:18Z</time>
      </trkpt>
      <trkpt lat="42.809879" lon="1.785779">
        <ele>2081.0</ele>
        <time>2019-02-17T10:17:27Z</time>
      </trkpt>
      <trkpt lat="42.809969" lon="1.785764">
        <ele>2080.0</ele>
        <time>2019-02-17T10:17:36Z</time>
      </trkpt>
      <trkpt lat="42.810057" lon="1.785747">
        <ele>2078.6</ele>
        <time>2019-02-17T10:17:44Z</time>
      </trkpt>
      <trkpt lat="42.810157" lon="1.785744">
        <ele>2077.3</ele>
        <time>2019-02-17T10:17:54Z</time>
      </trkpt>
      <trkpt lat="42.810248" lon="1.785733">
        <ele>2076.4</ele>
        <time>2019-02-17T10:18:03Z</time>
      </trkpt>
      <trkpt lat="42.810338" lon="1.785717">
        <ele>2074.9</ele>
        <time>2019-02-17T10:18:15Z</time>
      </trkpt>
      <trkpt lat="42.810432" lon="1.785709">
        <ele>2074.4</ele>
        <time>2019-02-17T10:18:24Z</time>
      </trkpt>
      <trkpt lat="42.810522" lon="1.785697">
        <ele>2073.4</ele>
        <time>2019-02-17T10:18:32Z</time>
      </trkpt>
      <trkpt lat="42.810616" lon="1.785689">
        <ele>2072.8</ele>
        <time>2019-02-17T10:18:40Z</time>
      </trkpt>
      <trkpt lat="42.810711" lon="1.785679">
        <ele>2072.3</ele>
        <time>2019-02-17T10:18:49Z</time>
      </trkpt>
      <trkpt lat="42.810806" lon="1.785655">
        <ele>2072.5</ele>
        <time>2019-02-17T10:18:58Z</time>
      </trkpt>
      <trkpt lat="42.810907" lon="1.785656">
        <ele>2072.7</ele>
        <time>2019-02-17T10:19:08Z</time>
      </trkpt>
      <trkpt lat="42.811004" lon="1.785682">
        <ele>2073.8</ele>
        <time>2019-02-17T10:19:20Z</time>
      </trkpt>
      <trkpt lat="42.811121" lon="1.785700">
        <ele>2076.0</ele>
        <time>2019-02-17T10:19:35Z</time>
      </trkpt>
      <trkpt lat="42.811231" lon="1.785700">
        <ele>2078.3</ele>
        <time>2019-02-17T10:19:53Z</time>
      </trkpt>
      <trkpt lat="42.811339" lon="1.785694">
        <ele>2081.4</ele>
        <time>2019-02-17T10:20:12Z</time>
      </trkpt>
      <trkpt lat="42.811432" lon="1.785716">
        <ele>2083.9</ele>
        <time>2019-02-17T10:20:30Z</time>
      </trkpt>
      <trkpt lat="42.811527" lon="1.785695">
        <ele>2088.0</ele>
        <time>2019-02-17T10:20:57Z</time>
      </trkpt>
      <trkpt lat="42.811624" lon="1.785666">
        <ele>2091.9</ele>
        <time>2019-02-17T10:21:22Z</time>
      </trkpt>
      <trkpt lat="42.811721" lon="1.785641">
        <ele>2095.1</ele>
        <time>2019-02-17T10:21:45Z</time>
      </trkpt>
      <trkpt lat="42.811807" lon="1.785622">
        <ele>2098.1</ele>
        <time>2019-02-17T10:22:02Z</time>
      </trkpt>
      <trkpt lat="42.811895" lon="1.785582">
        <ele>2101.6</ele>
        <time>2019-02-17T10:22:22Z</time>
      </trkpt>
      <trkpt lat="42.811991" lon="1.785578">
        <ele>2105.1</ele>
        <time>2019-02-17T10:22:43Z</time>
      </trkpt>
      <trkpt lat="42.812033" lon="1.785514">
        <ele>2107.9</ele>
        <time>2019-02-17T10:23:09Z</time>
      </trkpt>
      <trkpt lat="42.812115" lon="1.785490">
        <ele>2110.2</ele>
        <time>2019-02-17T10:23:27Z</time>
      </trkpt>
      <trkpt lat="42.812185" lon="1.785544">
        <ele>2114.4</ele>
        <time>2019-02-17T10:23:47Z</time>
      </trkpt>
      <trkpt lat="42.812258" lon="1.785471">
        <ele>2117.0</ele>
        <time>2019-02-17T10:24:06Z</time>
      </trkpt>
      <trkpt lat="42.812341" lon="1.785484">
        <ele>2121.5</ele>
        <time>2019-02-17T10:24:28Z</time>
      </trkpt>
      <trkpt lat="42.812432" lon="1.785532">
        <ele>2126.4</ele>
        <time>2019-02-17T10:24:51Z</time>
      </trkpt>
      <trkpt lat="42.812525" lon="1.785560">
        <ele>2130.9</ele>
        <time>2019-02-17T10:25:14Z</time>
      </trkpt>
      <trkpt lat="42.812622" lon="1.785578">
        <ele>2135.8</ele>
        <time>2019-02-17T10:25:44Z</time>
      </trkpt>
      <trkpt lat="42.812701" lon="1.785499">
        <ele>2138.9</ele>
        <time>2019-02-17T10:26:28Z</time>
      </trkpt>
      <trkpt lat="42.812775" lon="1.785393">
        <ele>2141.3</ele>
        <time>2019-02-17T10:26:50Z</time>
      </trkpt>
      <trkpt lat="42.812833" lon="1.785340">
        <ele>2144.4</ele>
        <time>2019-02-17T10:27:37Z</time>
      </trkpt>
      <trkpt lat="42.812832" lon="1.785381">
        <ele>2144.1</ele>
        <time>2019-02-17T10:28:01Z</time>
      </trkpt>
      <trkpt lat="42.812877" lon="1.785308">
        <ele>2144.2</ele>
        <time>2019-02-17T10:32:07Z</time>
      </trkpt>
      <trkpt lat="42.812970" lon="1.785229">
        <ele>2146.2</ele>
        <time>2019-02-17T10:32:26Z</time>
      </trkpt>
      <trkpt lat="42.813058" lon="1.785167">
        <ele>2148.1</ele>
        <time>2019-02-17T10:32:42Z</time>
      </trkpt>
      <trkpt lat="42.813155" lon="1.785146">
        <ele>2150.9</ele>
        <time>2019-02-17T10:32:58Z</time>
      </trkpt>
      <trkpt lat="42.813255" lon="1.785119">
        <ele>2152.3</ele>
        <time>2019-02-17T10:33:15Z</time>
      </trkpt>
      <trkpt lat="42.813352" lon="1.785076">
        <ele>2153.7</ele>
        <time>2019-02-17T10:33:30Z</time>
      </trkpt>
      <trkpt lat="42.813432" lon="1.785056">
        <ele>2157.0</ele>
        <time>2019-02-17T10:33:50Z</time>
      </trkpt>
      <trkpt lat="42.813509" lon="1.785079">
        <ele>2161.0</ele>
        <time>2019-02-17T10:34:13Z</time>
      </trkpt>
      <trkpt lat="42.813589" lon="1.785019">
        <ele>2164.1</ele>
        <time>2019-02-17T10:34:31Z</time>
      </trkpt>
      <trkpt lat="42.813687" lon="1.784978">
        <ele>2166.4</ele>
        <time>2019-02-17T10:34:48Z</time>
      </trkpt>
      <trkpt lat="42.813722" lon="1.784966">
        <ele>2168.7</ele>
        <time>2019-02-17T10:35:50Z</time>
      </trkpt>
      <trkpt lat="42.813797" lon="1.784966">
        <ele>2170.4</ele>
        <time>2019-02-17T10:36:34Z</time>
      </trkpt>
      <trkpt lat="42.813885" lon="1.784909">
        <ele>2172.6</ele>
        <time>2019-02-17T10:36:58Z</time>
      </trkpt>
      <trkpt lat="42.813960" lon="1.784903">
        <ele>2175.6</ele>
        <time>2019-02-17T10:37:30Z</time>
      </trkpt>
      <trkpt lat="42.814039" lon="1.784825">
        <ele>2177.0</ele>
        <time>2019-02-17T10:37:51Z</time>
      </trkpt>
      <trkpt lat="42.814116" lon="1.784804">
        <ele>2179.3</ele>
        <time>2019-02-17T10:38:28Z</time>
      </trkpt>
      <trkpt lat="42.814203" lon="1.784772">
        <ele>2182.3</ele>
        <time>2019-02-17T10:38:47Z</time>
      </trkpt>
      <trkpt lat="42.814274" lon="1.784785">
        <ele>2186.0</ele>
        <time>2019-02-17T10:39:35Z</time>
      </trkpt>
      <trkpt lat="42.814376" lon="1.784766">
        <ele>2191.5</ele>
        <time>2019-02-17T10:40:10Z</time>
      </trkpt>
      <trkpt lat="42.814452" lon="1.784763">
        <ele>2196.5</ele>
        <time>2019-02-17T10:40:52Z</time>
      </trkpt>
      <trkpt lat="42.814527" lon="1.784720">
        <ele>2198.2</ele>
        <time>2019-02-17T10:41:35Z</time>
      </trkpt>
      <trkpt lat="42.814632" lon="1.784728">
        <ele>2201.4</ele>
        <time>2019-02-17T10:42:05Z</time>
      </trkpt>
      <trkpt lat="42.814729" lon="1.784730">
        <ele>2206.0</ele>
        <time>2019-02-17T10:42:48Z</time>
      </trkpt>
      <trkpt lat="42.814827" lon="1.784739">
        <ele>2210.2</ele>
        <time>2019-02-17T10:43:39Z</time>
      </trkpt>
      <trkpt lat="42.814931" lon="1.784743">
        <ele>2214.6</ele>
        <time>2019-02-17T10:44:17Z</time>
      </trkpt>
      <trkpt lat="42.815036" lon="1.784742">
        <ele>2218.9</ele>
        <time>2019-02-17T10:44:57Z</time>
      </trkpt>
      <trkpt lat="42.815127" lon="1.784724">
        <ele>2223.3</ele>
        <time>2019-02-17T10:45:30Z</time>
      </trkpt>
      <trkpt lat="42.815222" lon="1.784699">
        <ele>2227.4</ele>
        <time>2019-02-17T10:46:06Z</time>
      </trkpt>
      <trkpt lat="42.815313" lon="1.784662">
        <ele>2231.2</ele>
        <time>2019-02-17T10:46:37Z</time>
      </trkpt>
      <trkpt lat="42.815412" lon="1.784662">
        <ele>2236.5</ele>
        <time>2019-02-17T10:47:14Z</time>
      </trkpt>
      <trkpt lat="42.815508" lon="1.784675">
        <ele>2242.0</ele>
        <time>2019-02-17T10:47:48Z</time>
      </trkpt>
      <trkpt lat="42.815602" lon="1.784704">
        <ele>2246.8</ele>
        <time>2019-02-17T10:48:18Z</time>
      </trkpt>
      <trkpt lat="42.815683" lon="1.784770">
        <ele>2250.5</ele>
        <time>2019-02-17T10:48:44Z</time>
      </trkpt>
      <trkpt lat="42.815732" lon="1.784714">
        <ele>2253.5</ele>
        <time>2019-02-17T10:50:41Z</time>
      </trkpt>
      <trkpt lat="42.815772" lon="1.784591">
        <ele>2255.6</ele>
        <time>2019-02-17T10:51:01Z</time>
      </trkpt>
      <trkpt lat="42.815766" lon="1.784474">
        <ele>2259.9</ele>
        <time>2019-02-17T10:51:53Z</time>
      </trkpt>
      <trkpt lat="42.815801" lon="1.784294">
        <ele>2262.0</ele>
        <time>2019-02-17T10:52:33Z</time>
      </trkpt>
      <trkpt lat="42.815840" lon="1.784235">
        <ele>2268.5</ele>
        <time>2019-02-17T10:53:24Z</time>
      </trkpt>
      <trkpt lat="42.815872" lon="1.784162">
        <ele>2269.7</ele>
        <time>2019-02-17T10:54:26Z</time>
      </trkpt>
      <trkpt lat="42.815950" lon="1.784059">
        <ele>2272.0</ele>
        <time>2019-02-17T10:55:26Z</time>
      </trkpt>
      <trkpt lat="42.815941" lon="1.783931">
        <ele>2277.5</ele>
        <time>2019-02-17T10:55:57Z</time>
      </trkpt>
      <trkpt lat="42.815944" lon="1.783805">
        <ele>2278.3</ele>
        <time>2019-02-17T10:56:22Z</time>
      </trkpt>
      <trkpt lat="42.815989" lon="1.783699">
        <ele>2277.8</ele>
        <time>2019-02-17T10:56:37Z</time>
      </trkpt>
      <trkpt lat="42.816075" lon="1.783634">
        <ele>2279.6</ele>
        <time>2019-02-17T10:56:53Z</time>
      </trkpt>
      <trkpt lat="42.816112" lon="1.783615">
        <ele>2282.1</ele>
        <time>2019-02-17T10:57:24Z</time>
      </trkpt>
      <trkpt lat="42.816201" lon="1.783553">
        <ele>2282.1</ele>
        <time>2019-02-17T10:57:39Z</time>
      </trkpt>
      <trkpt lat="42.816279" lon="1.783501">
        <ele>2285.1</ele>
        <time>2019-02-17T10:58:01Z</time>
      </trkpt>
      <trkpt lat="42.816345" lon="1.783430">
        <ele>2288.4</ele>
        <time>2019-02-17T10:58:25Z</time>
      </trkpt>
      <trkpt lat="42.816415" lon="1.783368">
        <ele>2292.2</ele>
        <time>2019-02-17T10:58:54Z</time>
      </trkpt>
      <trkpt lat="42.816495" lon="1.783313">
        <ele>2295.5</ele>
        <time>2019-02-17T10:59:27Z</time>
      </trkpt>
      <trkpt lat="42.816586" lon="1.783294">
        <ele>2298.6</ele>
        <time>2019-02-17T10:59:54Z</time>
      </trkpt>
      <trkpt lat="42.816667" lon="1.783235">
        <ele>2301.4</ele>
        <time>2019-02-17T11:00:17Z</time>
      </trkpt>
      <trkpt lat="42.816748" lon="1.783216">
        <ele>2305.0</ele>
        <time>2019-02-17T11:00:40Z</time>
      </trkpt>
      <trkpt lat="42.816845" lon="1.783209">
        <ele>2308.8</ele>
        <time>2019-02-17T11:01:05Z</time>
      </trkpt>
      <trkpt lat="42.816922" lon="1.783183">
        <ele>2313.2</ele>
        <time>2019-02-17T11:01:47Z</time>
      </trkpt>
      <trkpt lat="42.816994" lon="1.783109">
        <ele>2317.9</ele>
        <time>2019-02-17T11:02:19Z</time>
      </trkpt>
      <trkpt lat="42.817081" lon="1.783071">
        <ele>2322.8</ele>
        <time>2019-02-17T11:03:03Z</time>
      </trkpt>
      <trkpt lat="42.817157" lon="1.783020">
        <ele>2327.8</ele>
        <time>2019-02-17T11:03:53Z</time>
      </trkpt>
      <trkpt lat="42.817269" lon="1.782957">
        <ele>2336.9</ele>
        <time>2019-02-17T11:05:51Z</time>
      </trkpt>
      <trkpt lat="42.817332" lon="1.782868">
        <ele>2341.3</ele>
        <time>2019-02-17T11:06:24Z</time>
      </trkpt>
      <trkpt lat="42.817401" lon="1.782859">
        <ele>2345.3</ele>
        <time>2019-02-17T11:07:01Z</time>
      </trkpt>
      <trkpt lat="42.817473" lon="1.782788">
        <ele>2349.2</ele>
        <time>2019-02-17T11:07:37Z</time>
      </trkpt>
      <trkpt lat="42.817461" lon="1.782719">
        <ele>2348.2</ele>
        <time>2019-02-17T11:08:02Z</time>
      </trkpt>
      <trkpt lat="42.817479" lon="1.782612">
        <ele>2343.7</ele>
        <time>2019-02-17T11:08:59Z</time>
      </trkpt>
      <trkpt lat="42.817547" lon="1.782520">
        <ele>2343.5</ele>
        <time>2019-02-17T11:09:18Z</time>
      </trkpt>
      <trkpt lat="42.817615" lon="1.782436">
        <ele>2343.9</ele>
        <time>2019-02-17T11:09:36Z</time>
      </trkpt>
      <trkpt lat="42.817669" lon="1.782362">
        <ele>2343.4</ele>
        <time>2019-02-17T11:09:46Z</time>
      </trkpt>
      <trkpt lat="42.817689" lon="1.782327">
        <ele>2342.9</ele>
        <time>2019-02-17T11:11:57Z</time>
      </trkpt>
      <trkpt lat="42.817673" lon="1.782239">
        <ele>2341.8</ele>
        <time>2019-02-17T11:12:49Z</time>
      </trkpt>
      <trkpt lat="42.817642" lon="1.782133">
        <ele>2341.4</ele>
        <time>2019-02-17T11:13:09Z</time>
      </trkpt>
      <trkpt lat="42.817664" lon="1.782000">
        <ele>2345.8</ele>
        <time>2019-02-17T11:13:30Z</time>
      </trkpt>
      <trkpt lat="42.817691" lon="1.781876">
        <ele>2348.8</ele>
        <time>2019-02-17T11:13:51Z</time>
      </trkpt>
      <trkpt lat="42.817712" lon="1.781745">
        <ele>2352.4</ele>
        <time>2019-02-17T11:14:13Z</time>
      </trkpt>
      <trkpt lat="42.817683" lon="1.781616">
        <ele>2352.6</ele>
        <time>2019-02-17T11:14:32Z</time>
      </trkpt>
      <trkpt lat="42.817715" lon="1.781501">
        <ele>2355.6</ele>
        <time>2019-02-17T11:14:52Z</time>
      </trkpt>
      <trkpt lat="42.817769" lon="1.781412">
        <ele>2359.4</ele>
        <time>2019-02-17T11:15:18Z</time>
      </trkpt>
      <trkpt lat="42.817824" lon="1.781323">
        <ele>2360.5</ele>
        <time>2019-02-17T11:15:37Z</time>
      </trkpt>
      <trkpt lat="42.817884" lon="1.781286">
        <ele>2358.6</ele>
        <time>2019-02-17T11:16:45Z</time>
      </trkpt>
      <trkpt lat="42.817950" lon="1.781189">
        <ele>2361.8</ele>
        <time>2019-02-17T11:17:08Z</time>
      </trkpt>
      <trkpt lat="42.818005" lon="1.781148">
        <ele>2367.7</ele>
        <time>2019-02-17T11:17:47Z</time>
      </trkpt>
      <trkpt lat="42.818015" lon="1.781093">
        <ele>2368.5</ele>
        <time>2019-02-17T11:19:50Z</time>
      </trkpt>
      <trkpt lat="42.818007" lon="1.781067">
        <ele>2368.9</ele>
        <time>2019-02-17T11:24:25Z</time>
      </trkpt>
      <trkpt lat="42.817985" lon="1.781060">
        <ele>2368.0</ele>
        <time>2019-02-17T11:26:44Z</time>
      </trkpt>
      <trkpt lat="42.817940" lon="1.780990">
        <ele>2363.9</ele>
        <time>2019-02-17T11:27:21Z</time>
      </trkpt>
      <trkpt lat="42.817938" lon="1.780955">
        <ele>2361.8</ele>
        <time>2019-02-17T11:28:34Z</time>
      </trkpt>
      <trkpt lat="42.817932" lon="1.780911">
        <ele>2362.1</ele>
        <time>2019-02-17T11:29:46Z</time>
      </trkpt>
      <trkpt lat="42.817944" lon="1.780820">
        <ele>2364.6</ele>
        <time>2019-02-17T11:31:06Z</time>
      </trkpt>
      <trkpt lat="42.817955" lon="1.780802">
        <ele>2366.0</ele>
        <time>2019-02-17T11:32:27Z</time>
      </trkpt>
      <trkpt lat="42.817944" lon="1.780742">
        <ele>2363.3</ele>
        <time>2019-02-17T11:34:04Z</time>
      </trkpt>
      <trkpt lat="42.817912" lon="1.780667">
        <ele>2359.5</ele>
        <time>2019-02-17T11:34:31Z</time>
      </trkpt>
      <trkpt lat="42.817911" lon="1.780578">
        <ele>2357.5</ele>
        <time>2019-02-17T11:35:30Z</time>
      </trkpt>
      <trkpt lat="42.817919" lon="1.780558">
        <ele>2357.2</ele>
        <time>2019-02-17T11:39:43Z</time>
      </trkpt>
      <trkpt lat="42.817922" lon="1.780463">
        <ele>2354.1</ele>
        <time>2019-02-17T11:41:22Z</time>
      </trkpt>
      <trkpt lat="42.817907" lon="1.780368">
        <ele>2352.4</ele>
        <time>2019-02-17T11:42:56Z</time>
      </trkpt>
      <trkpt lat="42.817886" lon="1.780204">
        <ele>2347.8</ele>
        <time>2019-02-17T11:44:05Z</time>
      </trkpt>
      <trkpt lat="42.817853" lon="1.780085">
        <ele>2345.0</ele>
        <time>2019-02-17T11:44:35Z</time>
      </trkpt>
      <trkpt lat="42.817870" lon="1.779953">
        <ele>2343.2</ele>
        <time>2019-02-17T11:44:54Z</time>
      </trkpt>
      <trkpt lat="42.817886" lon="1.779825">
        <ele>2341.2</ele>
        <time>2019-02-17T11:45:09Z</time>
      </trkpt>
      <trkpt lat="42.817929" lon="1.779691">
        <ele>2339.3</ele>
        <time>2019-02-17T11:45:47Z</time>
      </trkpt>
      <trkpt lat="42.817967" lon="1.779571">
        <ele>2339.7</ele>
        <time>2019-02-17T11:46:08Z</time>
      </trkpt>
      <trkpt lat="42.817983" lon="1.779523">
        <ele>2338.4</ele>
        <time>2019-02-17T11:47:48Z</time>
      </trkpt>
      <trkpt lat="42.818002" lon="1.779398">
        <ele>2336.7</ele>
        <time>2019-02-17T11:48:11Z</time>
      </trkpt>
      <trkpt lat="42.818033" lon="1.779336">
        <ele>2340.4</ele>
        <time>2019-02-17T11:49:34Z</time>
      </trkpt>
      <trkpt lat="42.818083" lon="1.779257">
        <ele>2342.3</ele>
        <time>2019-02-17T11:51:12Z</time>
      </trkpt>
      <trkpt lat="42.818108" lon="1.779161">
        <ele>2343.7</ele>
        <time>2019-02-17T11:51:40Z</time>
      </trkpt>
      <trkpt lat="42.818087" lon="1.779086">
        <ele>2346.8</ele>
        <time>2019-02-17T11:53:40Z</time>
      </trkpt>
      <trkpt lat="42.818104" lon="1.778962">
        <ele>2345.9</ele>
        <time>2019-02-17T11:54:00Z</time>
      </trkpt>
      <trkpt lat="42.818084" lon="1.778849">
        <ele>2343.3</ele>
        <time>2019-02-17T11:54:20Z</time>
      </trkpt>
      <trkpt lat="42.818046" lon="1.778742">
        <ele>2340.0</ele>
        <time>2019-02-17T11:54:48Z</time>
      </trkpt>
      <trkpt lat="42.818028" lon="1.778631">
        <ele>2338.5</ele>
        <time>2019-02-17T11:55:08Z</time>
      </trkpt>
      <trkpt lat="42.817992" lon="1.778525">
        <ele>2336.5</ele>
        <time>2019-02-17T11:55:26Z</time>
      </trkpt>
      <trkpt lat="42.817964" lon="1.778413">
        <ele>2334.5</ele>
        <time>2019-02-17T11:55:43Z</time>
      </trkpt>
      <trkpt lat="42.817941" lon="1.778290">
        <ele>2330.8</ele>
        <time>2019-02-17T11:55:58Z</time>
      </trkpt>
      <trkpt lat="42.817952" lon="1.778164">
        <ele>2327.3</ele>
        <time>2019-02-17T11:56:12Z</time>
      </trkpt>
      <trkpt lat="42.817983" lon="1.778038">
        <ele>2325.2</ele>
        <time>2019-02-17T11:56:28Z</time>
      </trkpt>
      <trkpt lat="42.817979" lon="1.777918">
        <ele>2322.7</ele>
        <time>2019-02-17T11:56:42Z</time>
      </trkpt>
      <trkpt lat="42.817993" lon="1.777823">
        <ele>2320.5</ele>
        <time>2019-02-17T11:56:57Z</time>
      </trkpt>
      <trkpt lat="42.818014" lon="1.777712">
        <ele>2317.6</ele>
        <time>2019-02-17T11:57:13Z</time>
      </trkpt>
      <trkpt lat="42.818028" lon="1.777606">
        <ele>2313.4</ele>
        <time>2019-02-17T11:57:29Z</time>
      </trkpt>
      <trkpt lat="42.818013" lon="1.777493">
        <ele>2309.6</ele>
        <time>2019-02-17T11:57:44Z</time>
      </trkpt>
      <trkpt lat="42.818016" lon="1.777387">
        <ele>2306.4</ele>
        <time>2019-02-17T11:58:02Z</time>
      </trkpt>
      <trkpt lat="42.818021" lon="1.777287">
        <ele>2300.7</ele>
        <time>2019-02-17T11:58:21Z</time>
      </trkpt>
      <trkpt lat="42.817974" lon="1.777223">
        <ele>2295.3</ele>
        <time>2019-02-17T11:58:43Z</time>
      </trkpt>
      <trkpt lat="42.817968" lon="1.777105">
        <ele>2290.6</ele>
        <time>2019-02-17T11:59:04Z</time>
      </trkpt>
      <trkpt lat="42.818023" lon="1.777003">
        <ele>2288.2</ele>
        <time>2019-02-17T11:59:17Z</time>
      </trkpt>
      <trkpt lat="42.818074" lon="1.776914">
        <ele>2285.6</ele>
        <time>2019-02-17T11:59:31Z</time>
      </trkpt>
      <trkpt lat="42.818092" lon="1.776805">
        <ele>2280.1</ele>
        <time>2019-02-17T11:59:46Z</time>
      </trkpt>
      <trkpt lat="42.818119" lon="1.776718">
        <ele>2274.0</ele>
        <time>2019-02-17T12:00:17Z</time>
      </trkpt>
      <trkpt lat="42.818154" lon="1.776606">
        <ele>2269.8</ele>
        <time>2019-02-17T12:00:33Z</time>
      </trkpt>
      <trkpt lat="42.818181" lon="1.776519">
        <ele>2265.8</ele>
        <time>2019-02-17T12:00:52Z</time>
      </trkpt>
      <trkpt lat="42.818216" lon="1.776437">
        <ele>2261.4</ele>
        <time>2019-02-17T12:01:15Z</time>
      </trkpt>
      <trkpt lat="42.818249" lon="1.776360">
        <ele>2255.9</ele>
        <time>2019-02-17T12:01:58Z</time>
      </trkpt>
      <trkpt lat="42.818250" lon="1.776241">
        <ele>2253.3</ele>
        <time>2019-02-17T12:02:22Z</time>
      </trkpt>
      <trkpt lat="42.818294" lon="1.776145">
        <ele>2249.4</ele>
        <time>2019-02-17T12:02:51Z</time>
      </trkpt>
      <trkpt lat="42.818316" lon="1.776040">
        <ele>2245.9</ele>
        <time>2019-02-17T12:03:13Z</time>
      </trkpt>
      <trkpt lat="42.818340" lon="1.775919">
        <ele>2240.9</ele>
        <time>2019-02-17T12:03:32Z</time>
      </trkpt>
      <trkpt lat="42.818343" lon="1.775814">
        <ele>2234.9</ele>
        <time>2019-02-17T12:03:50Z</time>
      </trkpt>
      <trkpt lat="42.818357" lon="1.775695">
        <ele>2232.7</ele>
        <time>2019-02-17T12:04:16Z</time>
      </trkpt>
      <trkpt lat="42.818352" lon="1.775579">
        <ele>2232.0</ele>
        <time>2019-02-17T12:04:35Z</time>
      </trkpt>
      <trkpt lat="42.818353" lon="1.775454">
        <ele>2231.1</ele>
        <time>2019-02-17T12:04:51Z</time>
      </trkpt>
      <trkpt lat="42.818361" lon="1.775323">
        <ele>2229.0</ele>
        <time>2019-02-17T12:05:05Z</time>
      </trkpt>
      <trkpt lat="42.818372" lon="1.775190">
        <ele>2229.1</ele>
        <time>2019-02-17T12:06:01Z</time>
      </trkpt>
      <trkpt lat="42.818386" lon="1.775058">
        <ele>2227.3</ele>
        <time>2019-02-17T12:06:25Z</time>
      </trkpt>
      <trkpt lat="42.818416" lon="1.774923">
        <ele>2225.8</ele>
        <time>2019-02-17T12:06:39Z</time>
      </trkpt>
      <trkpt lat="42.818463" lon="1.774828">
        <ele>2224.4</ele>
        <time>2019-02-17T12:06:51Z</time>
      </trkpt>
      <trkpt lat="42.818493" lon="1.774710">
        <ele>2224.8</ele>
        <time>2019-02-17T12:07:07Z</time>
      </trkpt>
      <trkpt lat="42.818481" lon="1.774765">
        <ele>2225.3</ele>
        <time>2019-02-17T12:08:03Z</time>
      </trkpt>
      <trkpt lat="42.818497" lon="1.774632">
        <ele>2226.4</ele>
        <time>2019-02-17T12:12:33Z</time>
      </trkpt>
      <trkpt lat="42.818540" lon="1.774533">
        <ele>2228.7</ele>
        <time>2019-02-17T12:12:49Z</time>
      </trkpt>
      <trkpt lat="42.818558" lon="1.774417">
        <ele>2232.6</ele>
        <time>2019-02-17T12:13:15Z</time>
      </trkpt>
      <trkpt lat="42.818563" lon="1.774252">
        <ele>2241.1</ele>
        <time>2019-02-17T12:14:22Z</time>
      </trkpt>
      <trkpt lat="42.818562" lon="1.774132">
        <ele>2246.8</ele>
        <time>2019-02-17T12:15:10Z</time>
      </trkpt>
      <trkpt lat="42.818620" lon="1.774014">
        <ele>2252.3</ele>
        <time>2019-02-17T12:16:13Z</time>
      </trkpt>
      <trkpt lat="42.818666" lon="1.773899">
        <ele>2255.2</ele>
        <time>2019-02-17T12:16:38Z</time>
      </trkpt>
      <trkpt lat="42.818705" lon="1.773782">
        <ele>2257.7</ele>
        <time>2019-02-17T12:16:59Z</time>
      </trkpt>
      <trkpt lat="42.818763" lon="1.773689">
        <ele>2259.1</ele>
        <time>2019-02-17T12:17:14Z</time>
      </trkpt>
      <trkpt lat="42.818815" lon="1.773562">
        <ele>2260.2</ele>
        <time>2019-02-17T12:17:30Z</time>
      </trkpt>
      <trkpt lat="42.818843" lon="1.773428">
        <ele>2263.2</ele>
        <time>2019-02-17T12:17:49Z</time>
      </trkpt>
      <trkpt lat="42.818867" lon="1.773310">
        <ele>2266.6</ele>
        <time>2019-02-17T12:18:09Z</time>
      </trkpt>
      <trkpt lat="42.818897" lon="1.773192">
        <ele>2269.0</ele>
        <time>2019-02-17T12:18:29Z</time>
      </trkpt>
      <trkpt lat="42.818921" lon="1.773078">
        <ele>2272.2</ele>
        <time>2019-02-17T12:18:49Z</time>
      </trkpt>
      <trkpt lat="42.818935" lon="1.772970">
        <ele>2276.8</ele>
        <time>2019-02-17T12:19:15Z</time>
      </trkpt>
      <trkpt lat="42.818938" lon="1.772840">
        <ele>2280.4</ele>
        <time>2019-02-17T12:19:38Z</time>
      </trkpt>
      <trkpt lat="42.818951" lon="1.772714">
        <ele>2284.4</ele>
        <time>2019-02-17T12:20:09Z</time>
      </trkpt>
      <trkpt lat="42.818958" lon="1.772591">
        <ele>2288.5</ele>
        <time>2019-02-17T12:20:37Z</time>
      </trkpt>
      <trkpt lat="42.818980" lon="1.772476">
        <ele>2292.7</ele>
        <time>2019-02-17T12:21:09Z</time>
      </trkpt>
      <trkpt lat="42.819001" lon="1.772364">
        <ele>2296.8</ele>
        <time>2019-02-17T12:21:36Z</time>
      </trkpt>
      <trkpt lat="42.819020" lon="1.772258">
        <ele>2301.1</ele>
        <time>2019-02-17T12:22:07Z</time>
      </trkpt>
      <trkpt lat="42.819042" lon="1.772140">
        <ele>2306.4</ele>
        <time>2019-02-17T12:22:40Z</time>
      </trkpt>
      <trkpt lat="42.819059" lon="1.772010">
        <ele>2312.7</ele>
        <time>2019-02-17T12:23:22Z</time>
      </trkpt>
      <trkpt lat="42.819094" lon="1.771898">
        <ele>2317.2</ele>
        <time>2019-02-17T12:23:56Z</time>
      </trkpt>
      <trkpt lat="42.819129" lon="1.771767">
        <ele>2322.9</ele>
        <time>2019-02-17T12:24:40Z</time>
      </trkpt>
      <trkpt lat="42.819140" lon="1.771651">
        <ele>2328.0</ele>
        <time>2019-02-17T12:25:30Z</time>
      </trkpt>
      <trkpt lat="42.819153" lon="1.771537">
        <ele>2332.6</ele>
        <time>2019-02-17T12:26:03Z</time>
      </trkpt>
      <trkpt lat="42.819165" lon="1.771406">
        <ele>2337.9</ele>
        <time>2019-02-17T12:26:45Z</time>
      </trkpt>
      <trkpt lat="42.819137" lon="1.771271">
        <ele>2343.7</ele>
        <time>2019-02-17T12:27:35Z</time>
      </trkpt>
      <trkpt lat="42.819118" lon="1.771142">
        <ele>2350.0</ele>
        <time>2019-02-17T13:32:28Z</time>
      </trkpt>
      <trkpt lat="42.819083" lon="1.771026">
        <ele>2349.4</ele>
        <time>2019-02-17T13:33:48Z</time>
      </trkpt>
      <trkpt lat="42.819009" lon="1.770933">
        <ele>2346.6</ele>
        <time>2019-02-17T13:33:57Z</time>
      </trkpt>
      <trkpt lat="42.818958" lon="1.770813">
        <ele>2343.9</ele>
        <time>2019-02-17T13:34:07Z</time>
      </trkpt>
      <trkpt lat="42.818856" lon="1.770774">
        <ele>2341.0</ele>
        <time>2019-02-17T13:34:17Z</time>
      </trkpt>
      <trkpt lat="42.818765" lon="1.770767">
        <ele>2337.6</ele>
        <time>2019-02-17T13:34:23Z</time>
      </trkpt>
      <trkpt lat="42.818666" lon="1.770747">
        <ele>2333.3</ele>
        <time>2019-02-17T13:34:30Z</time>
      </trkpt>
      <trkpt lat="42.818594" lon="1.770722">
        <ele>2328.6</ele>
        <time>2019-02-17T13:34:39Z</time>
      </trkpt>
      <trkpt lat="42.818498" lon="1.770694">
        <ele>2324.6</ele>
        <time>2019-02-17T13:34:47Z</time>
      </trkpt>
      <trkpt lat="42.818420" lon="1.770722">
        <ele>2321.1</ele>
        <time>2019-02-17T13:34:56Z</time>
      </trkpt>
      <trkpt lat="42.818344" lon="1.770711">
        <ele>2316.9</ele>
        <time>2019-02-17T13:35:09Z</time>
      </trkpt>
      <trkpt lat="42.818248" lon="1.770689">
        <ele>2312.7</ele>
        <time>2019-02-17T13:35:25Z</time>
      </trkpt>
      <trkpt lat="42.818156" lon="1.770689">
        <ele>2307.1</ele>
        <time>2019-02-17T13:35:49Z</time>
      </trkpt>
      <trkpt lat="42.818056" lon="1.770677">
        <ele>2303.3</ele>
        <time>2019-02-17T13:36:04Z</time>
      </trkpt>
      <trkpt lat="42.817962" lon="1.770655">
        <ele>2299.9</ele>
        <time>2019-02-17T13:36:15Z</time>
      </trkpt>
      <trkpt lat="42.817871" lon="1.770670">
        <ele>2295.8</ele>
        <time>2019-02-17T13:36:24Z</time>
      </trkpt>
      <trkpt lat="42.817780" lon="1.770723">
        <ele>2290.9</ele>
        <time>2019-02-17T13:36:33Z</time>
      </trkpt>
      <trkpt lat="42.817694" lon="1.770754">
        <ele>2286.4</ele>
        <time>2019-02-17T13:36:44Z</time>
      </trkpt>
      <trkpt lat="42.817592" lon="1.770789">
        <ele>2282.1</ele>
        <time>2019-02-17T13:36:55Z</time>
      </trkpt>
      <trkpt lat="42.817486" lon="1.770823">
        <ele>2278.3</ele>
        <time>2019-02-17T13:37:06Z</time>
      </trkpt>
      <trkpt lat="42.817391" lon="1.770866">
        <ele>2275.2</ele>
        <time>2019-02-17T13:37:16Z</time>
      </trkpt>
      <trkpt lat="42.817301" lon="1.770889">
        <ele>2270.8</ele>
        <time>2019-02-17T13:37:27Z</time>
      </trkpt>
      <trkpt lat="42.817213" lon="1.770888">
        <ele>2267.7</ele>
        <time>2019-02-17T13:37:37Z</time>
      </trkpt>
      <trkpt lat="42.817118" lon="1.770896">
        <ele>2265.2</ele>
        <time>2019-02-17T13:37:46Z</time>
      </trkpt>
      <trkpt lat="42.817021" lon="1.770898">
        <ele>2262.6</ele>
        <time>2019-02-17T13:37:56Z</time>
      </trkpt>
      <trkpt lat="42.816931" lon="1.770898">
        <ele>2260.8</ele>
        <time>2019-02-17T13:38:05Z</time>
      </trkpt>
      <trkpt lat="42.816835" lon="1.770911">
        <ele>2257.8</ele>
        <time>2019-02-17T13:38:15Z</time>
      </trkpt>
      <trkpt lat="42.816741" lon="1.770908">
        <ele>2254.8</ele>
        <time>2019-02-17T13:38:25Z</time>
      </trkpt>
      <trkpt lat="42.816641" lon="1.770919">
        <ele>2252.0</ele>
        <time>2019-02-17T13:38:35Z</time>
      </trkpt>
      <trkpt lat="42.816548" lon="1.770938">
        <ele>2249.7</ele>
        <time>2019-02-17T13:38:44Z</time>
      </trkpt>
      <trkpt lat="42.816496" lon="1.770942">
        <ele>2246.4</ele>
        <time>2019-02-17T13:39:17Z</time>
      </trkpt>
      <trkpt lat="42.816487" lon="1.770936">
        <ele>2246.7</ele>
        <time>2019-02-17T13:41:57Z</time>
      </trkpt>
      <trkpt lat="42.816369" lon="1.770876">
        <ele>2244.3</ele>
        <time>2019-02-17T13:43:37Z</time>
      </trkpt>
      <trkpt lat="42.816281" lon="1.770833">
        <ele>2240.9</ele>
        <time>2019-02-17T13:43:47Z</time>
      </trkpt>
      <trkpt lat="42.816184" lon="1.770827">
        <ele>2236.6</ele>
        <time>2019-02-17T13:43:58Z</time>
      </trkpt>
      <trkpt lat="42.816090" lon="1.770840">
        <ele>2233.6</ele>
        <time>2019-02-17T13:44:08Z</time>
      </trkpt>
      <trkpt lat="42.815610" lon="1.770661">
        <ele>2234.9</ele>
        <time>2019-02-17T13:46:22Z</time>
      </trkpt>
      <trkpt lat="42.814986" lon="1.770337">
        <ele>2213.3</ele>
        <time>2019-02-17T13:49:30Z</time>
      </trkpt>
      <trkpt lat="42.814252" lon="1.769973">
        <ele>2196.5</ele>
        <time>2019-02-17T13:53:05Z</time>
      </trkpt>
      <trkpt lat="42.813974" lon="1.769735">
        <ele>2186.7</ele>
        <time>2019-02-17T13:54:36Z</time>
      </trkpt>
      <trkpt lat="42.813482" lon="1.769544">
        <ele>2175.9</ele>
        <time>2019-02-17T13:56:57Z</time>
      </trkpt>
      <trkpt lat="42.813163" lon="1.769407">
        <ele>2167.6</ele>
        <time>2019-02-17T13:58:30Z</time>
      </trkpt>
      <trkpt lat="42.812777" lon="1.769148">
        <ele>2154.6</ele>
        <time>2019-02-17T14:00:30Z</time>
      </trkpt>
      <trkpt lat="42.812386" lon="1.768683">
        <ele>2131.6</ele>
        <time>2019-02-17T14:03:01Z</time>
      </trkpt>
      <trkpt lat="42.812079" lon="1.768287">
        <ele>2111.1</ele>
        <time>2019-02-17T14:05:06Z</time>
      </trkpt>
      <trkpt lat="42.811821" lon="1.767934">
        <ele>2074.4</ele>
        <time>2019-02-17T14:07:19Z</time>
      </trkpt>
      <trkpt lat="42.811732" lon="1.767891">
        <ele>2070.4</ele>
        <time>2019-02-17T14:07:30Z</time>
      </trkpt>
      <trkpt lat="42.811647" lon="1.767840">
        <ele>2065.9</ele>
        <time>2019-02-17T14:07:42Z</time>
      </trkpt>
      <trkpt lat="42.811566" lon="1.767784">
        <ele>2060.1</ele>
        <time>2019-02-17T14:07:55Z</time>
      </trkpt>
      <trkpt lat="42.811490" lon="1.767717">
        <ele>2053.9</ele>
        <time>2019-02-17T14:08:10Z</time>
      </trkpt>
      <trkpt lat="42.811403" lon="1.767685">
        <ele>2048.4</ele>
        <time>2019-02-17T14:08:37Z</time>
      </trkpt>
      <trkpt lat="42.811320" lon="1.767621">
        <ele>2042.7</ele>
        <time>2019-02-17T14:08:52Z</time>
      </trkpt>
      <trkpt lat="42.811260" lon="1.767522">
        <ele>2037.1</ele>
        <time>2019-02-17T14:09:08Z</time>
      </trkpt>
      <trkpt lat="42.811235" lon="1.767400">
        <ele>2032.4</ele>
        <time>2019-02-17T14:09:22Z</time>
      </trkpt>
      <trkpt lat="42.811186" lon="1.767335">
        <ele>2027.9</ele>
        <time>2019-02-17T14:09:37Z</time>
      </trkpt>
      <trkpt lat="42.811101" lon="1.767319">
        <ele>2024.6</ele>
        <time>2019-02-17T14:09:52Z</time>
      </trkpt>
      <trkpt lat="42.810973" lon="1.767285">
        <ele>2017.5</ele>
        <time>2019-02-17T14:11:39Z</time>
      </trkpt>
      <trkpt lat="42.810972" lon="1.767258">
        <ele>2015.7</ele>
        <time>2019-02-17T14:20:12Z</time>
      </trkpt>
      <trkpt lat="42.810891" lon="1.767276">
        <ele>2013.4</ele>
        <time>2019-02-17T14:20:30Z</time>
      </trkpt>
      <trkpt lat="42.810802" lon="1.767309">
        <ele>2011.1</ele>
        <time>2019-02-17T14:20:42Z</time>
      </trkpt>
      <trkpt lat="42.810713" lon="1.767339">
        <ele>2007.6</ele>
        <time>2019-02-17T14:20:59Z</time>
      </trkpt>
      <trkpt lat="42.810627" lon="1.767384">
        <ele>2004.8</ele>
        <time>2019-02-17T14:21:12Z</time>
      </trkpt>
      <trkpt lat="42.810532" lon="1.767422">
        <ele>2001.2</ele>
        <time>2019-02-17T14:21:28Z</time>
      </trkpt>
      <trkpt lat="42.810430" lon="1.767437">
        <ele>1997.1</ele>
        <time>2019-02-17T14:21:44Z</time>
      </trkpt>
      <trkpt lat="42.810333" lon="1.767451">
        <ele>1994.0</ele>
        <time>2019-02-17T14:21:56Z</time>
      </trkpt>
      <trkpt lat="42.810252" lon="1.767453">
        <ele>1990.4</ele>
        <time>2019-02-17T14:22:11Z</time>
      </trkpt>
      <trkpt lat="42.810160" lon="1.767464">
        <ele>1986.4</ele>
        <time>2019-02-17T14:22:37Z</time>
      </trkpt>
      <trkpt lat="42.810059" lon="1.767460">
        <ele>1982.8</ele>
        <time>2019-02-17T14:22:53Z</time>
      </trkpt>
      <trkpt lat="42.809972" lon="1.767443">
        <ele>1979.4</ele>
        <time>2019-02-17T14:23:08Z</time>
      </trkpt>
      <trkpt lat="42.809881" lon="1.767442">
        <ele>1976.1</ele>
        <time>2019-02-17T14:23:23Z</time>
      </trkpt>
      <trkpt lat="42.809791" lon="1.767433">
        <ele>1973.0</ele>
        <time>2019-02-17T14:23:34Z</time>
      </trkpt>
      <trkpt lat="42.809717" lon="1.767494">
        <ele>1970.4</ele>
        <time>2019-02-17T14:23:45Z</time>
      </trkpt>
      <trkpt lat="42.809625" lon="1.767445">
        <ele>1966.7</ele>
        <time>2019-02-17T14:23:57Z</time>
      </trkpt>
      <trkpt lat="42.809526" lon="1.767444">
        <ele>1962.7</ele>
        <time>2019-02-17T14:24:08Z</time>
      </trkpt>
      <trkpt lat="42.809442" lon="1.767427">
        <ele>1959.2</ele>
        <time>2019-02-17T14:24:18Z</time>
      </trkpt>
      <trkpt lat="42.809363" lon="1.767374">
        <ele>1955.3</ele>
        <time>2019-02-17T14:24:27Z</time>
      </trkpt>
      <trkpt lat="42.809275" lon="1.767354">
        <ele>1951.8</ele>
        <time>2019-02-17T14:24:36Z</time>
      </trkpt>
      <trkpt lat="42.809192" lon="1.767355">
        <ele>1947.7</ele>
        <time>2019-02-17T14:24:46Z</time>
      </trkpt>
      <trkpt lat="42.809099" lon="1.767384">
        <ele>1944.8</ele>
        <time>2019-02-17T14:24:55Z</time>
      </trkpt>
      <trkpt lat="42.809020" lon="1.767442">
        <ele>1941.1</ele>
        <time>2019-02-17T14:25:22Z</time>
      </trkpt>
      <trkpt lat="42.808944" lon="1.767523">
        <ele>1940.2</ele>
        <time>2019-02-17T14:25:31Z</time>
      </trkpt>
      <trkpt lat="42.808876" lon="1.767607">
        <ele>1938.0</ele>
        <time>2019-02-17T14:25:40Z</time>
      </trkpt>
      <trkpt lat="42.808812" lon="1.767607">
        <ele>1935.1</ele>
        <time>2019-02-17T14:27:29Z</time>
      </trkpt>
      <trkpt lat="42.808719" lon="1.767594">
        <ele>1932.7</ele>
        <time>2019-02-17T14:27:38Z</time>
      </trkpt>
      <trkpt lat="42.808634" lon="1.767537">
        <ele>1928.6</ele>
        <time>2019-02-17T14:27:46Z</time>
      </trkpt>
      <trkpt lat="42.808545" lon="1.767512">
        <ele>1925.1</ele>
        <time>2019-02-17T14:27:54Z</time>
      </trkpt>
      <trkpt lat="42.808452" lon="1.767486">
        <ele>1921.5</ele>
        <time>2019-02-17T14:28:03Z</time>
      </trkpt>
      <trkpt lat="42.808360" lon="1.767470">
        <ele>1917.6</ele>
        <time>2019-02-17T14:28:14Z</time>
      </trkpt>
      <trkpt lat="42.808263" lon="1.767478">
        <ele>1914.8</ele>
        <time>2019-02-17T14:28:25Z</time>
      </trkpt>
      <trkpt lat="42.808166" lon="1.767517">
        <ele>1912.4</ele>
        <time>2019-02-17T14:28:35Z</time>
      </trkpt>
      <trkpt lat="42.808069" lon="1.767522">
        <ele>1910.7</ele>
        <time>2019-02-17T14:28:44Z</time>
      </trkpt>
      <trkpt lat="42.807974" lon="1.767511">
        <ele>1908.8</ele>
        <time>2019-02-17T14:28:53Z</time>
      </trkpt>
      <trkpt lat="42.807897" lon="1.767556">
        <ele>1906.8</ele>
        <time>2019-02-17T14:29:03Z</time>
      </trkpt>
      <trkpt lat="42.807834" lon="1.767631">
        <ele>1904.9</ele>
        <time>2019-02-17T14:29:19Z</time>
      </trkpt>
      <trkpt lat="42.807741" lon="1.767611">
        <ele>1901.3</ele>
        <time>2019-02-17T14:29:29Z</time>
      </trkpt>
      <trkpt lat="42.807661" lon="1.767558">
        <ele>1895.8</ele>
        <time>2019-02-17T14:29:42Z</time>
      </trkpt>
      <trkpt lat="42.807572" lon="1.767508">
        <ele>1890.7</ele>
        <time>2019-02-17T14:29:58Z</time>
      </trkpt>
      <trkpt lat="42.807479" lon="1.767504">
        <ele>1884.5</ele>
        <time>2019-02-17T14:30:37Z</time>
      </trkpt>
      <trkpt lat="42.807419" lon="1.767432">
        <ele>1882.1</ele>
        <time>2019-02-17T14:30:48Z</time>
      </trkpt>
      <trkpt lat="42.807359" lon="1.767335">
        <ele>1878.4</ele>
        <time>2019-02-17T14:30:57Z</time>
      </trkpt>
      <trkpt lat="42.807292" lon="1.767247">
        <ele>1874.6</ele>
        <time>2019-02-17T14:31:04Z</time>
      </trkpt>
      <trkpt lat="42.807206" lon="1.767169">
        <ele>1869.1</ele>
        <time>2019-02-17T14:31:11Z</time>
      </trkpt>
      <trkpt lat="42.807111" lon="1.767111">
        <ele>1864.1</ele>
        <time>2019-02-17T14:31:18Z</time>
      </trkpt>
      <trkpt lat="42.807024" lon="1.767051">
        <ele>1859.7</ele>
        <time>2019-02-17T14:31:24Z</time>
      </trkpt>
      <trkpt lat="42.806942" lon="1.767004">
        <ele>1853.7</ele>
        <time>2019-02-17T14:31:32Z</time>
      </trkpt>
      <trkpt lat="42.806850" lon="1.766981">
        <ele>1849.0</ele>
        <time>2019-02-17T14:31:43Z</time>
      </trkpt>
      <trkpt lat="42.806797" lon="1.766979">
        <ele>1843.1</ele>
        <time>2019-02-17T14:33:54Z</time>
      </trkpt>
      <trkpt lat="42.806709" lon="1.766975">
        <ele>1841.4</ele>
        <time>2019-02-17T14:34:02Z</time>
      </trkpt>
      <trkpt lat="42.806607" lon="1.766921">
        <ele>1838.1</ele>
        <time>2019-02-17T14:34:09Z</time>
      </trkpt>
      <trkpt lat="42.806504" lon="1.766885">
        <ele>1833.9</ele>
        <time>2019-02-17T14:34:15Z</time>
      </trkpt>
      <trkpt lat="42.806415" lon="1.766846">
        <ele>1830.0</ele>
        <time>2019-02-17T14:34:20Z</time>
      </trkpt>
      <trkpt lat="42.806318" lon="1.766814">
        <ele>1824.4</ele>
        <time>2019-02-17T14:34:26Z</time>
      </trkpt>
      <trkpt lat="42.806227" lon="1.766753">
        <ele>1818.3</ele>
        <time>2019-02-17T14:34:37Z</time>
      </trkpt>
      <trkpt lat="42.806150" lon="1.766683">
        <ele>1814.5</ele>
        <time>2019-02-17T14:34:47Z</time>
      </trkpt>
      <trkpt lat="42.806066" lon="1.766667">
        <ele>1810.2</ele>
        <time>2019-02-17T14:34:57Z</time>
      </trkpt>
      <trkpt lat="42.805984" lon="1.766683">
        <ele>1807.7</ele>
        <time>2019-02-17T14:35:07Z</time>
      </trkpt>
      <trkpt lat="42.805894" lon="1.766716">
        <ele>1804.9</ele>
        <time>2019-02-17T14:35:16Z</time>
      </trkpt>
      <trkpt lat="42.805794" lon="1.766731">
        <ele>1802.9</ele>
        <time>2019-02-17T14:35:24Z</time>
      </trkpt>
      <trkpt lat="42.805700" lon="1.766752">
        <ele>1800.3</ele>
        <time>2019-02-17T14:35:32Z</time>
      </trkpt>
      <trkpt lat="42.805605" lon="1.766755">
        <ele>1796.7</ele>
        <time>2019-02-17T14:35:41Z</time>
      </trkpt>
      <trkpt lat="42.805506" lon="1.766780">
        <ele>1794.3</ele>
        <time>2019-02-17T14:35:50Z</time>
      </trkpt>
      <trkpt lat="42.805413" lon="1.766744">
        <ele>1792.1</ele>
        <time>2019-02-17T14:36:02Z</time>
      </trkpt>
      <trkpt lat="42.805325" lon="1.766681">
        <ele>1789.7</ele>
        <time>2019-02-17T14:36:12Z</time>
      </trkpt>
      <trkpt lat="42.805236" lon="1.766635">
        <ele>1787.0</ele>
        <time>2019-02-17T14:36:20Z</time>
      </trkpt>
      <trkpt lat="42.805162" lon="1.766552">
        <ele>1784.3</ele>
        <time>2019-02-17T14:36:29Z</time>
      </trkpt>
      <trkpt lat="42.805106" lon="1.766448">
        <ele>1781.7</ele>
        <time>2019-02-17T14:36:38Z</time>
      </trkpt>
      <trkpt lat="42.805026" lon="1.766394">
        <ele>1779.2</ele>
        <time>2019-02-17T14:36:47Z</time>
      </trkpt>
      <trkpt lat="42.804944" lon="1.766335">
        <ele>1776.3</ele>
        <time>2019-02-17T14:36:56Z</time>
      </trkpt>
      <trkpt lat="42.804854" lon="1.766360">
        <ele>1773.3</ele>
        <time>2019-02-17T14:37:06Z</time>
      </trkpt>
      <trkpt lat="42.804773" lon="1.766301">
        <ele>1770.1</ele>
        <time>2019-02-17T14:37:15Z</time>
      </trkpt>
      <trkpt lat="42.804685" lon="1.766273">
        <ele>1766.1</ele>
        <time>2019-02-17T14:37:24Z</time>
      </trkpt>
      <trkpt lat="42.804599" lon="1.766299">
        <ele>1763.3</ele>
        <time>2019-02-17T14:37:33Z</time>
      </trkpt>
      <trkpt lat="42.804518" lon="1.766299">
        <ele>1761.6</ele>
        <time>2019-02-17T14:37:43Z</time>
      </trkpt>
      <trkpt lat="42.804441" lon="1.766261">
        <ele>1759.2</ele>
        <time>2019-02-17T14:37:52Z</time>
      </trkpt>
      <trkpt lat="42.804368" lon="1.766311">
        <ele>1756.7</ele>
        <time>2019-02-17T14:38:20Z</time>
      </trkpt>
      <trkpt lat="42.804278" lon="1.766327">
        <ele>1755.7</ele>
        <time>2019-02-17T14:38:31Z</time>
      </trkpt>
      <trkpt lat="42.804186" lon="1.766327">
        <ele>1754.2</ele>
        <time>2019-02-17T14:38:42Z</time>
      </trkpt>
      <trkpt lat="42.804092" lon="1.766324">
        <ele>1752.6</ele>
        <time>2019-02-17T14:38:52Z</time>
      </trkpt>
      <trkpt lat="42.804007" lon="1.766355">
        <ele>1750.6</ele>
        <time>2019-02-17T14:39:03Z</time>
      </trkpt>
      <trkpt lat="42.803915" lon="1.766360">
        <ele>1748.8</ele>
        <time>2019-02-17T14:39:13Z</time>
      </trkpt>
      <trkpt lat="42.803825" lon="1.766384">
        <ele>1746.9</ele>
        <time>2019-02-17T14:39:23Z</time>
      </trkpt>
      <trkpt lat="42.803737" lon="1.766372">
        <ele>1743.9</ele>
        <time>2019-02-17T14:40:29Z</time>
      </trkpt>
      <trkpt lat="42.803642" lon="1.766388">
        <ele>1742.9</ele>
        <time>2019-02-17T14:40:39Z</time>
      </trkpt>
      <trkpt lat="42.803544" lon="1.766402">
        <ele>1741.4</ele>
        <time>2019-02-17T14:40:49Z</time>
      </trkpt>
      <trkpt lat="42.803444" lon="1.766377">
        <ele>1739.8</ele>
        <time>2019-02-17T14:40:58Z</time>
      </trkpt>
      <trkpt lat="42.803359" lon="1.766311">
        <ele>1738.1</ele>
        <time>2019-02-17T14:41:06Z</time>
      </trkpt>
      <trkpt lat="42.803269" lon="1.766286">
        <ele>1735.9</ele>
        <time>2019-02-17T14:41:15Z</time>
      </trkpt>
      <trkpt lat="42.803176" lon="1.766266">
        <ele>1734.0</ele>
        <time>2019-02-17T14:41:24Z</time>
      </trkpt>
      <trkpt lat="42.803099" lon="1.766207">
        <ele>1731.8</ele>
        <time>2019-02-17T14:41:33Z</time>
      </trkpt>
      <trkpt lat="42.803013" lon="1.766167">
        <ele>1729.7</ele>
        <time>2019-02-17T14:41:42Z</time>
      </trkpt>
      <trkpt lat="42.802933" lon="1.766126">
        <ele>1727.9</ele>
        <time>2019-02-17T14:41:52Z</time>
      </trkpt>
      <trkpt lat="42.802882" lon="1.766040">
        <ele>1726.6</ele>
        <time>2019-02-17T14:42:01Z</time>
      </trkpt>
      <trkpt lat="42.802804" lon="1.765965">
        <ele>1724.7</ele>
        <time>2019-02-17T14:42:10Z</time>
      </trkpt>
      <trkpt lat="42.802714" lon="1.765916">
        <ele>1722.3</ele>
        <time>2019-02-17T14:42:19Z</time>
      </trkpt>
      <trkpt lat="42.802625" lon="1.765871">
        <ele>1720.5</ele>
        <time>2019-02-17T14:42:28Z</time>
      </trkpt>
      <trkpt lat="42.802546" lon="1.765817">
        <ele>1718.5</ele>
        <time>2019-02-17T14:42:36Z</time>
      </trkpt>
      <trkpt lat="42.802466" lon="1.765752">
        <ele>1716.6</ele>
        <time>2019-02-17T14:42:45Z</time>
      </trkpt>
      <trkpt lat="42.802390" lon="1.765693">
        <ele>1714.5</ele>
        <time>2019-02-17T14:42:54Z</time>
      </trkpt>
      <trkpt lat="42.802307" lon="1.765650">
        <ele>1713.2</ele>
        <time>2019-02-17T14:43:06Z</time>
      </trkpt>
      <trkpt lat="42.802216" lon="1.765634">
        <ele>1713.1</ele>
        <time>2019-02-17T14:43:23Z</time>
      </trkpt>
      <trkpt lat="42.802119" lon="1.765672">
        <ele>1713.5</ele>
        <time>2019-02-17T14:43:37Z</time>
      </trkpt>
      <trkpt lat="42.802030" lon="1.765735">
        <ele>1714.7</ele>
        <time>2019-02-17T14:43:49Z</time>
      </trkpt>
      <trkpt lat="42.801949" lon="1.765815">
        <ele>1716.3</ele>
        <time>2019-02-17T14:44:03Z</time>
      </trkpt>
      <trkpt lat="42.801867" lon="1.765863">
        <ele>1715.6</ele>
        <time>2019-02-17T14:44:16Z</time>
      </trkpt>
      <trkpt lat="42.801790" lon="1.765948">
        <ele>1714.8</ele>
        <time>2019-02-17T14:44:28Z</time>
      </trkpt>
      <trkpt lat="42.801711" lon="1.766023">
        <ele>1714.1</ele>
        <time>2019-02-17T14:44:40Z</time>
      </trkpt>
      <trkpt lat="42.801623" lon="1.766080">
        <ele>1713.2</ele>
        <time>2019-02-17T14:44:53Z</time>
      </trkpt>
      <trkpt lat="42.801531" lon="1.766137">
        <ele>1712.0</ele>
        <time>2019-02-17T14:45:07Z</time>
      </trkpt>
      <trkpt lat="42.801433" lon="1.766174">
        <ele>1711.3</ele>
        <time>2019-02-17T14:45:20Z</time>
      </trkpt>
      <trkpt lat="42.801340" lon="1.766199">
        <ele>1709.6</ele>
        <time>2019-02-17T14:45:31Z</time>
      </trkpt>
      <trkpt lat="42.801251" lon="1.766220">
        <ele>1708.2</ele>
        <time>2019-02-17T14:45:43Z</time>
      </trkpt>
      <trkpt lat="42.801167" lon="1.766294">
        <ele>1707.1</ele>
        <time>2019-02-17T14:45:55Z</time>
      </trkpt>
      <trkpt lat="42.801097" lon="1.766391">
        <ele>1706.9</ele>
        <time>2019-02-17T14:46:08Z</time>
      </trkpt>
      <trkpt lat="42.801008" lon="1.766406">
        <ele>1706.6</ele>
        <time>2019-02-17T14:46:20Z</time>
      </trkpt>
      <trkpt lat="42.800917" lon="1.766401">
        <ele>1705.3</ele>
        <time>2019-02-17T14:46:31Z</time>
      </trkpt>
      <trkpt lat="42.800828" lon="1.766433">
        <ele>1703.7</ele>
        <time>2019-02-17T14:46:42Z</time>
      </trkpt>
      <trkpt lat="42.800736" lon="1.766454">
        <ele>1702.5</ele>
        <time>2019-02-17T14:46:52Z</time>
      </trkpt>
      <trkpt lat="42.800663" lon="1.766386">
        <ele>1700.2</ele>
        <time>2019-02-17T14:47:06Z</time>
      </trkpt>
      <trkpt lat="42.800572" lon="1.766383">
        <ele>1696.8</ele>
        <time>2019-02-17T14:47:24Z</time>
      </trkpt>
      <trkpt lat="42.800479" lon="1.766396">
        <ele>1695.8</ele>
        <time>2019-02-17T14:47:35Z</time>
      </trkpt>
      <trkpt lat="42.800393" lon="1.766400">
        <ele>1693.1</ele>
        <time>2019-02-17T14:47:48Z</time>
      </trkpt>
      <trkpt lat="42.800346" lon="1.766359">
        <ele>1691.0</ele>
        <time>2019-02-17T14:48:05Z</time>
      </trkpt>
      <trkpt lat="42.800253" lon="1.766307">
        <ele>1688.8</ele>
        <time>2019-02-17T14:48:14Z</time>
      </trkpt>
      <trkpt lat="42.800157" lon="1.766254">
        <ele>1685.3</ele>
        <time>2019-02-17T14:48:23Z</time>
      </trkpt>
      <trkpt lat="42.800079" lon="1.766198">
        <ele>1681.5</ele>
        <time>2019-02-17T14:48:32Z</time>
      </trkpt>
      <trkpt lat="42.799988" lon="1.766205">
        <ele>1677.9</ele>
        <time>2019-02-17T14:48:41Z</time>
      </trkpt>
      <trkpt lat="42.799897" lon="1.766229">
        <ele>1674.4</ele>
        <time>2019-02-17T14:48:50Z</time>
      </trkpt>
      <trkpt lat="42.799811" lon="1.766272">
        <ele>1671.5</ele>
        <time>2019-02-17T14:49:00Z</time>
      </trkpt>
      <trkpt lat="42.799712" lon="1.766273">
        <ele>1668.9</ele>
        <time>2019-02-17T14:49:10Z</time>
      </trkpt>
      <trkpt lat="42.799611" lon="1.766275">
        <ele>1665.5</ele>
        <time>2019-02-17T14:49:20Z</time>
      </trkpt>
      <trkpt lat="42.799510" lon="1.766300">
        <ele>1662.3</ele>
        <time>2019-02-17T14:49:30Z</time>
      </trkpt>
      <trkpt lat="42.799417" lon="1.766342">
        <ele>1659.8</ele>
        <time>2019-02-17T14:49:41Z</time>
      </trkpt>
      <trkpt lat="42.799312" lon="1.766371">
        <ele>1657.4</ele>
        <time>2019-02-17T14:49:52Z</time>
      </trkpt>
      <trkpt lat="42.799223" lon="1.766412">
        <ele>1655.1</ele>
        <time>2019-02-17T14:50:02Z</time>
      </trkpt>
      <trkpt lat="42.799189" lon="1.766483">
        <ele>1653.3</ele>
        <time>2019-02-17T14:50:40Z</time>
      </trkpt>
      <trkpt lat="42.799208" lon="1.766484">
        <ele>1653.0</ele>
        <time>2019-02-17T14:52:48Z</time>
      </trkpt>
      <trkpt lat="42.799111" lon="1.766574">
        <ele>1652.2</ele>
        <time>2019-02-17T14:52:59Z</time>
      </trkpt>
      <trkpt lat="42.799021" lon="1.766500">
        <ele>1648.7</ele>
        <time>2019-02-17T14:53:12Z</time>
      </trkpt>
      <trkpt lat="42.798897" lon="1.766537">
        <ele>1644.4</ele>
        <time>2019-02-17T14:53:24Z</time>
      </trkpt>
      <trkpt lat="42.798792" lon="1.766578">
        <ele>1641.2</ele>
        <time>2019-02-17T14:53:38Z</time>
      </trkpt>
      <trkpt lat="42.798690" lon="1.766601">
        <ele>1637.4</ele>
        <time>2019-02-17T14:53:54Z</time>
      </trkpt>
      <trkpt lat="42.798583" lon="1.766650">
        <ele>1634.0</ele>
        <time>2019-02-17T14:54:09Z</time>
      </trkpt>
      <trkpt lat="42.798483" lon="1.766723">
        <ele>1631.6</ele>
        <time>2019-02-17T14:54:23Z</time>
      </trkpt>
      <trkpt lat="42.798402" lon="1.766789">
        <ele>1630.4</ele>
        <time>2019-02-17T14:54:38Z</time>
      </trkpt>
      <trkpt lat="42.798316" lon="1.766844">
        <ele>1629.0</ele>
        <time>2019-02-17T14:54:51Z</time>
      </trkpt>
      <trkpt lat="42.798272" lon="1.766895">
        <ele>1626.2</ele>
        <time>2019-02-17T14:55:49Z</time>
      </trkpt>
      <trkpt lat="42.798170" lon="1.766929">
        <ele>1623.9</ele>
        <time>2019-02-17T14:56:03Z</time>
      </trkpt>
      <trkpt lat="42.798071" lon="1.766939">
        <ele>1621.4</ele>
        <time>2019-02-17T14:56:15Z</time>
      </trkpt>
      <trkpt lat="42.797985" lon="1.767003">
        <ele>1618.6</ele>
        <time>2019-02-17T14:56:28Z</time>
      </trkpt>
      <trkpt lat="42.797870" lon="1.767076">
        <ele>1613.4</ele>
        <time>2019-02-17T14:56:50Z</time>
      </trkpt>
      <trkpt lat="42.797751" lon="1.767149">
        <ele>1609.5</ele>
        <time>2019-02-17T14:57:08Z</time>
      </trkpt>
      <trkpt lat="42.797628" lon="1.767181">
        <ele>1606.3</ele>
        <time>2019-02-17T14:57:21Z</time>
      </trkpt>
      <trkpt lat="42.797576" lon="1.767291">
        <ele>1603.9</ele>
        <time>2019-02-17T14:57:37Z</time>
      </trkpt>
      <trkpt lat="42.797488" lon="1.767327">
        <ele>1603.5</ele>
        <time>2019-02-17T14:57:51Z</time>
      </trkpt>
      <trkpt lat="42.797399" lon="1.767357">
        <ele>1601.4</ele>
        <time>2019-02-17T14:58:02Z</time>
      </trkpt>
      <trkpt lat="42.797308" lon="1.767368">
        <ele>1598.2</ele>
        <time>2019-02-17T14:58:11Z</time>
      </trkpt>
      <trkpt lat="42.797220" lon="1.767347">
        <ele>1592.3</ele>
        <time>2019-02-17T14:58:23Z</time>
      </trkpt>
      <trkpt lat="42.797121" lon="1.767324">
        <ele>1587.4</ele>
        <time>2019-02-17T14:58:36Z</time>
      </trkpt>
      <trkpt lat="42.797026" lon="1.767360">
        <ele>1583.8</ele>
        <time>2019-02-17T14:58:48Z</time>
      </trkpt>
      <trkpt lat="42.797021" lon="1.767409">
        <ele>1579.9</ele>
        <time>2019-02-17T15:00:45Z</time>
      </trkpt>
      <trkpt lat="42.796914" lon="1.767415">
        <ele>1578.0</ele>
        <time>2019-02-17T15:00:56Z</time>
      </trkpt>
      <trkpt lat="42.796827" lon="1.767454">
        <ele>1574.8</ele>
        <time>2019-02-17T15:01:06Z</time>
      </trkpt>
      <trkpt lat="42.796741" lon="1.767429">
        <ele>1572.0</ele>
        <time>2019-02-17T15:01:16Z</time>
      </trkpt>
      <trkpt lat="42.796648" lon="1.767389">
        <ele>1568.5</ele>
        <time>2019-02-17T15:01:26Z</time>
      </trkpt>
      <trkpt lat="42.796554" lon="1.767362">
        <ele>1565.0</ele>
        <time>2019-02-17T15:01:35Z</time>
      </trkpt>
      <trkpt lat="42.796488" lon="1.767410">
        <ele>1561.9</ele>
        <time>2019-02-17T15:01:45Z</time>
      </trkpt>
      <trkpt lat="42.796439" lon="1.767514">
        <ele>1555.6</ele>
        <time>2019-02-17T15:02:01Z</time>
      </trkpt>
      <trkpt lat="42.796404" lon="1.767633">
        <ele>1551.7</ele>
        <time>2019-02-17T15:02:14Z</time>
      </trkpt>
      <trkpt lat="42.796317" lon="1.767700">
        <ele>1547.2</ele>
        <time>2019-02-17T15:02:40Z</time>
      </trkpt>
      <trkpt lat="42.796225" lon="1.767670">
        <ele>1544.2</ele>
        <time>2019-02-17T15:02:51Z</time>
      </trkpt>
      <trkpt lat="42.796148" lon="1.767719">
        <ele>1540.8</ele>
        <time>2019-02-17T15:03:02Z</time>
      </trkpt>
      <trkpt lat="42.796051" lon="1.767735">
        <ele>1536.3</ele>
        <time>2019-02-17T15:03:13Z</time>
      </trkpt>
      <trkpt lat="42.795984" lon="1.767757">
        <ele>1532.2</ele>
        <time>2019-02-17T15:04:19Z</time>
      </trkpt>
      <trkpt lat="42.795886" lon="1.767775">
        <ele>1529.2</ele>
        <time>2019-02-17T15:04:28Z</time>
      </trkpt>
      <trkpt lat="42.795801" lon="1.767794">
        <ele>1525.7</ele>
        <time>2019-02-17T15:04:37Z</time>
      </trkpt>
      <trkpt lat="42.795732" lon="1.767861">
        <ele>1521.6</ele>
        <time>2019-02-17T15:04:48Z</time>
      </trkpt>
      <trkpt lat="42.795653" lon="1.767894">
        <ele>1517.5</ele>
        <time>2019-02-17T15:05:02Z</time>
      </trkpt>
      <trkpt lat="42.795559" lon="1.767921">
        <ele>1513.2</ele>
        <time>2019-02-17T15:05:14Z</time>
      </trkpt>
      <trkpt lat="42.795474" lon="1.767934">
        <ele>1508.7</ele>
        <time>2019-02-17T15:05:26Z</time>
      </trkpt>
      <trkpt lat="42.795372" lon="1.767935">
        <ele>1503.7</ele>
        <time>2019-02-17T15:05:38Z</time>
      </trkpt>
      <trkpt lat="42.795299" lon="1.767943">
        <ele>1498.0</ele>
        <time>2019-02-17T15:06:03Z</time>
      </trkpt>
      <trkpt lat="42.795198" lon="1.767979">
        <ele>1496.6</ele>
        <time>2019-02-17T15:06:24Z</time>
      </trkpt>
      <trkpt lat="42.795108" lon="1.767995">
        <ele>1493.0</ele>
        <time>2019-02-17T15:06:34Z</time>
      </trkpt>
      <trkpt lat="42.795017" lon="1.768017">
        <ele>1488.8</ele>
        <time>2019-02-17T15:06:45Z</time>
      </trkpt>
      <trkpt lat="42.794917" lon="1.768029">
        <ele>1484.7</ele>
        <time>2019-02-17T15:06:56Z</time>
      </trkpt>
      <trkpt lat="42.794828" lon="1.768030">
        <ele>1480.2</ele>
        <time>2019-02-17T15:07:07Z</time>
      </trkpt>
      <trkpt lat="42.794758" lon="1.768090">
        <ele>1475.3</ele>
        <time>2019-02-17T15:07:20Z</time>
      </trkpt>
      <trkpt lat="42.794689" lon="1.768160">
        <ele>1471.8</ele>
        <time>2019-02-17T15:07:34Z</time>
      </trkpt>
      <trkpt lat="42.794631" lon="1.768273">
        <ele>1469.8</ele>
        <time>2019-02-17T15:07:48Z</time>
      </trkpt>
      <trkpt lat="42.794548" lon="1.768310">
        <ele>1466.4</ele>
        <time>2019-02-17T15:08:03Z</time>
      </trkpt>
      <trkpt lat="42.794472" lon="1.768322">
        <ele>1461.3</ele>
        <time>2019-02-17T15:11:07Z</time>
      </trkpt>
      <trkpt lat="42.794374" lon="1.768341">
        <ele>1457.7</ele>
        <time>2019-02-17T15:11:21Z</time>
      </trkpt>
      <trkpt lat="42.794286" lon="1.768325">
        <ele>1455.5</ele>
        <time>2019-02-17T15:11:37Z</time>
      </trkpt>
      <trkpt lat="42.794197" lon="1.768364">
        <ele>1452.3</ele>
        <time>2019-02-17T15:11:48Z</time>
      </trkpt>
      <trkpt lat="42.794128" lon="1.768449">
        <ele>1448.7</ele>
        <time>2019-02-17T15:11:59Z</time>
      </trkpt>
      <trkpt lat="42.794054" lon="1.768497">
        <ele>1445.6</ele>
        <time>2019-02-17T15:12:10Z</time>
      </trkpt>
      <trkpt lat="42.793959" lon="1.768530">
        <ele>1442.0</ele>
        <time>2019-02-17T15:12:22Z</time>
      </trkpt>
      <trkpt lat="42.793862" lon="1.768539">
        <ele>1438.5</ele>
        <time>2019-02-17T15:12:34Z</time>
      </trkpt>
      <trkpt lat="42.793765" lon="1.768558">
        <ele>1434.9</ele>
        <time>2019-02-17T15:12:47Z</time>
      </trkpt>
      <trkpt lat="42.793674" lon="1.768571">
        <ele>1432.5</ele>
        <time>2019-02-17T15:13:03Z</time>
      </trkpt>
      <trkpt lat="42.793594" lon="1.768616">
        <ele>1429.3</ele>
        <time>2019-02-17T15:13:20Z</time>
      </trkpt>
      <trkpt lat="42.793502" lon="1.768660">
        <ele>1427.3</ele>
        <time>2019-02-17T15:13:33Z</time>
      </trkpt>
      <trkpt lat="42.793419" lon="1.768706">
        <ele>1424.7</ele>
        <time>2019-02-17T15:13:44Z</time>
      </trkpt>
      <trkpt lat="42.793355" lon="1.768779">
        <ele>1421.3</ele>
        <time>2019-02-17T15:14:00Z</time>
      </trkpt>
      <trkpt lat="42.793317" lon="1.768897">
        <ele>1419.6</ele>
        <time>2019-02-17T15:14:12Z</time>
      </trkpt>
      <trkpt lat="42.793240" lon="1.768959">
        <ele>1417.5</ele>
        <time>2019-02-17T15:14:23Z</time>
      </trkpt>
      <trkpt lat="42.793168" lon="1.769043">
        <ele>1414.7</ele>
        <time>2019-02-17T15:14:33Z</time>
      </trkpt>
      <trkpt lat="42.793069" lon="1.769074">
        <ele>1411.6</ele>
        <time>2019-02-17T15:14:46Z</time>
      </trkpt>
      <trkpt lat="42.792976" lon="1.769088">
        <ele>1409.3</ele>
        <time>2019-02-17T15:14:57Z</time>
      </trkpt>
      <trkpt lat="42.792888" lon="1.769136">
        <ele>1407.2</ele>
        <time>2019-02-17T15:15:13Z</time>
      </trkpt>
      <trkpt lat="42.792806" lon="1.769176">
        <ele>1405.4</ele>
        <time>2019-02-17T15:15:29Z</time>
      </trkpt>
      <trkpt lat="42.792704" lon="1.769192">
        <ele>1404.2</ele>
        <time>2019-02-17T15:15:40Z</time>
      </trkpt>
      <trkpt lat="42.792631" lon="1.769251">
        <ele>1401.8</ele>
        <time>2019-02-17T15:15:52Z</time>
      </trkpt>
      <trkpt lat="42.792580" lon="1.769354">
        <ele>1400.8</ele>
        <time>2019-02-17T15:16:07Z</time>
      </trkpt>
      <trkpt lat="42.792502" lon="1.769425">
        <ele>1399.9</ele>
        <time>2019-02-17T15:19:07Z</time>
      </trkpt>
      <trkpt lat="42.792417" lon="1.769522">
        <ele>1398.9</ele>
        <time>2019-02-17T15:19:19Z</time>
      </trkpt>
      <trkpt lat="42.792334" lon="1.769602">
        <ele>1397.5</ele>
        <time>2019-02-17T15:19:31Z</time>
      </trkpt>
      <trkpt lat="42.792265" lon="1.769564">
        <ele>1394.7</ele>
        <time>2019-02-17T15:19:47Z</time>
      </trkpt>
      <trkpt lat="42.792162" lon="1.769543">
        <ele>1392.4</ele>
        <time>2019-02-17T15:20:00Z</time>
      </trkpt>
      <trkpt lat="42.792081" lon="1.769607">
        <ele>1390.2</ele>
        <time>2019-02-17T15:20:21Z</time>
      </trkpt>
      <trkpt lat="42.792007" lon="1.769647">
        <ele>1388.6</ele>
        <time>2019-02-17T15:20:34Z</time>
      </trkpt>
      <trkpt lat="42.791927" lon="1.769725">
        <ele>1387.2</ele>
        <time>2019-02-17T15:20:45Z</time>
      </trkpt>
      <trkpt lat="42.791863" lon="1.769826">
        <ele>1385.7</ele>
        <time>2019-02-17T15:20:58Z</time>
      </trkpt>
      <trkpt lat="42.791787" lon="1.769884">
        <ele>1384.1</ele>
        <time>2019-02-17T15:21:10Z</time>
      </trkpt>
      <trkpt lat="42.791715" lon="1.769915">
        <ele>1381.3</ele>
        <time>2019-02-17T15:21:25Z</time>
      </trkpt>
      <trkpt lat="42.791628" lon="1.769941">
        <ele>1378.7</ele>
        <time>2019-02-17T15:21:39Z</time>
      </trkpt>
      <trkpt lat="42.791553" lon="1.769999">
        <ele>1375.9</ele>
        <time>2019-02-17T15:21:51Z</time>
      </trkpt>
      <trkpt lat="42.791483" lon="1.770051">
        <ele>1371.8</ele>
        <time>2019-02-17T15:22:06Z</time>
      </trkpt>
      <trkpt lat="42.791409" lon="1.770108">
        <ele>1368.1</ele>
        <time>2019-02-17T15:22:21Z</time>
      </trkpt>
      <trkpt lat="42.791340" lon="1.770198">
        <ele>1363.1</ele>
        <time>2019-02-17T15:22:38Z</time>
      </trkpt>
      <trkpt lat="42.791248" lon="1.770283">
        <ele>1359.3</ele>
        <time>2019-02-17T15:22:52Z</time>
      </trkpt>
      <trkpt lat="42.791161" lon="1.770288">
        <ele>1356.2</ele>
        <time>2019-02-17T15:23:02Z</time>
      </trkpt>
      <trkpt lat="42.791080" lon="1.770314">
        <ele>1352.5</ele>
        <time>2019-02-17T15:23:16Z</time>
      </trkpt>
      <trkpt lat="42.791051" lon="1.770417">
        <ele>1348.4</ele>
        <time>2019-02-17T15:23:32Z</time>
      </trkpt>
      <trkpt lat="42.791033" lon="1.770421">
        <ele>1346.1</ele>
        <time>2019-02-17T15:25:06Z</time>
      </trkpt>
      <trkpt lat="42.790952" lon="1.770319">
        <ele>1345.7</ele>
        <time>2019-02-17T15:25:17Z</time>
      </trkpt>
      <trkpt lat="42.790905" lon="1.770191">
        <ele>1344.6</ele>
        <time>2019-02-17T15:25:34Z</time>
      </trkpt>
      <trkpt lat="42.790904" lon="1.770019">
        <ele>1343.3</ele>
        <time>2019-02-17T15:25:44Z</time>
      </trkpt>
      <trkpt lat="42.790883" lon="1.769870">
        <ele>1341.5</ele>
        <time>2019-02-17T15:25:54Z</time>
      </trkpt>
      <trkpt lat="42.790844" lon="1.769741">
        <ele>1341.0</ele>
        <time>2019-02-17T15:26:04Z</time>
      </trkpt>
      <trkpt lat="42.790830" lon="1.769618">
        <ele>1340.1</ele>
        <time>2019-02-17T15:26:13Z</time>
      </trkpt>
      <trkpt lat="42.790732" lon="1.769618">
        <ele>1338.4</ele>
        <time>2019-02-17T15:26:20Z</time>
      </trkpt>
      <trkpt lat="42.790661" lon="1.769695">
        <ele>1335.9</ele>
        <time>2019-02-17T15:26:28Z</time>
      </trkpt>
      <trkpt lat="42.790611" lon="1.769807">
        <ele>1334.7</ele>
        <time>2019-02-17T15:26:38Z</time>
      </trkpt>
      <trkpt lat="42.790603" lon="1.769921">
        <ele>1334.0</ele>
        <time>2019-02-17T15:26:47Z</time>
      </trkpt>
      <trkpt lat="42.790578" lon="1.770006">
        <ele>1332.9</ele>
        <time>2019-02-17T15:26:58Z</time>
      </trkpt>
      <trkpt lat="42.790516" lon="1.770114">
        <ele>1330.9</ele>
        <time>2019-02-17T15:27:07Z</time>
      </trkpt>
      <trkpt lat="42.790452" lon="1.770220">
        <ele>1328.5</ele>
        <time>2019-02-17T15:27:15Z</time>
      </trkpt>
      <trkpt lat="42.790390" lon="1.770333">
        <ele>1327.0</ele>
        <time>2019-02-17T15:27:21Z</time>
      </trkpt>
      <trkpt lat="42.790375" lon="1.770460">
        <ele>1324.8</ele>
        <time>2019-02-17T15:27:31Z</time>
      </trkpt>
      <trkpt lat="42.790348" lon="1.770599">
        <ele>1324.0</ele>
        <time>2019-02-17T15:27:43Z</time>
      </trkpt>
      <trkpt lat="42.790337" lon="1.770746">
        <ele>1323.3</ele>
        <time>2019-02-17T15:27:55Z</time>
      </trkpt>
      <trkpt lat="42.790361" lon="1.770856">
        <ele>1322.0</ele>
        <time>2019-02-17T15:28:15Z</time>
      </trkpt>
      <trkpt lat="42.790370" lon="1.771019">
        <ele>1321.7</ele>
        <time>2019-02-17T15:28:27Z</time>
      </trkpt>
      <trkpt lat="42.790403" lon="1.771124">
        <ele>1321.3</ele>
        <time>2019-02-17T15:28:45Z</time>
      </trkpt>
      <trkpt lat="42.790401" lon="1.771257">
        <ele>1320.8</ele>
        <time>2019-02-17T15:28:59Z</time>
      </trkpt>
      <trkpt lat="42.790388" lon="1.771415">
        <ele>1320.4</ele>
        <time>2019-02-17T15:29:13Z</time>
      </trkpt>
      <trkpt lat="42.790325" lon="1.771541">
        <ele>1320.0</ele>
        <time>2019-02-17T15:29:23Z</time>
      </trkpt>
      <trkpt lat="42.790211" lon="1.771614">
        <ele>1319.9</ele>
        <time>2019-02-17T15:29:35Z</time>
      </trkpt>
      <trkpt lat="42.790107" lon="1.771667">
        <ele>1319.7</ele>
        <time>2019-02-17T15:29:47Z</time>
      </trkpt>
      <trkpt lat="42.790002" lon="1.771735">
        <ele>1319.5</ele>
        <time>2019-02-17T15:29:58Z</time>
      </trkpt>
      <trkpt lat="42.789908" lon="1.771833">
        <ele>1318.8</ele>
        <time>2019-02-17T15:30:11Z</time>
      </trkpt>
      <trkpt lat="42.789804" lon="1.771880">
        <ele>1317.2</ele>
        <time>2019-02-17T15:30:23Z</time>
      </trkpt>
      <trkpt lat="42.789691" lon="1.771916">
        <ele>1315.9</ele>
        <time>2019-02-17T15:30:36Z</time>
      </trkpt>
      <trkpt lat="42.789571" lon="1.772018">
        <ele>1315.2</ele>
        <time>2019-02-17T15:30:49Z</time>
      </trkpt>
      <trkpt lat="42.789481" lon="1.772155">
        <ele>1315.2</ele>
        <time>2019-02-17T15:31:02Z</time>
      </trkpt>
      <trkpt lat="42.789400" lon="1.772302">
        <ele>1315.0</ele>
        <time>2019-02-17T15:31:13Z</time>
      </trkpt>
      <trkpt lat="42.789352" lon="1.772434">
        <ele>1314.6</ele>
        <time>2019-02-17T15:31:24Z</time>
      </trkpt>
      <trkpt lat="42.789293" lon="1.772553">
        <ele>1313.8</ele>
        <time>2019-02-17T15:31:34Z</time>
      </trkpt>
      <trkpt lat="42.789227" lon="1.772677">
        <ele>1312.9</ele>
        <time>2019-02-17T15:31:44Z</time>
      </trkpt>
      <trkpt lat="42.789165" lon="1.772795">
        <ele>1312.3</ele>
        <time>2019-02-17T15:31:55Z</time>
      </trkpt>
      <trkpt lat="42.789122" lon="1.772929">
        <ele>1311.6</ele>
        <time>2019-02-17T15:32:06Z</time>
      </trkpt>
      <trkpt lat="42.789074" lon="1.773043">
        <ele>1310.2</ele>
        <time>2019-02-17T15:32:17Z</time>
      </trkpt>
    </trkseg>
  </trk>
</gpx>

